AUA2PJ LOWW-VRMM
Flight info
| Callsign | AUA2PJ |
|---|---|
| Flight time | 9h 45m |
| Altitude | 37000 |
| Route | ARSIN1C ARSIN DCT NALOX DCT OSDUK DCT AKIKA DCT PINDO UL607 ATV UL995 KEA UL607 PAXIS Y707 OBRAN L321 REXUM M872 FYM/N0482F390 M872 PMA Y214 RAPMA DCT ULONO DCT DAPOL L692 GISKA N569 GOLNI P570 KITAL/N0483F410 L894 ELBET ELBET1A |
| Aircraft | B772/H-SDE2E3FGHIJ5LORVWXY/LB1D1 |
Departure
| Time | 2026-04-21 19:44 |
|---|---|
| Airport | Vienna International Airport (LOWW) |
Arrival
| Time | 2026-04-22 05:29 |
|---|---|
| Airport | Velana International Airport (VRMM) |
| Time | Latitude | Longitude | Altitude | Speed | Heading |
|---|---|---|---|---|---|
| 2026-04-21 19:20 | 48.11649 | 16.56949 | 628 ft | 0 kts | 25° |
| 2026-04-21 19:35 | 48.11646 | 16.56946 | 613 ft | 3 kts | 26° |
| 2026-04-21 19:36 | 48.11630 | 16.56934 | 613 ft | 4 kts | 32° |
| 2026-04-21 19:36 | 48.11609 | 16.56910 | 607 ft | 4 kts | 48° |
| 2026-04-21 19:36 | 48.11596 | 16.56879 | 633 ft | 4 kts | 90° |
| 2026-04-21 19:36 | 48.11597 | 16.56862 | 630 ft | 0 kts | 116° |
| 2026-04-21 19:39 | 48.11595 | 16.56869 | 615 ft | 2 kts | 117° |
| 2026-04-21 19:39 | 48.11572 | 16.56927 | 627 ft | 0 kts | 122° |
| 2026-04-21 19:40 | 48.11559 | 16.56974 | 630 ft | 8 kts | 109° |
| 2026-04-21 19:40 | 48.11527 | 16.57075 | 626 ft | 16 kts | 116° |
| 2026-04-21 19:40 | 48.11491 | 16.57182 | 626 ft | 11 kts | 114° |
| 2026-04-21 19:40 | 48.11458 | 16.57278 | 623 ft | 11 kts | 116° |
| 2026-04-21 19:41 | 48.11423 | 16.57372 | 622 ft | 10 kts | 143° |
| 2026-04-21 19:41 | 48.11355 | 16.57358 | 621 ft | 10 kts | 205° |
| 2026-04-21 19:41 | 48.11280 | 16.57306 | 626 ft | 17 kts | 205° |
| 2026-04-21 19:41 | 48.11178 | 16.57234 | 625 ft | 9 kts | 206° |
| 2026-04-21 19:42 | 48.11171 | 16.57229 | 623 ft | 0 kts | 205° |
| 2026-04-21 19:42 | 48.11158 | 16.57220 | 625 ft | 8 kts | 205° |
| 2026-04-21 19:42 | 48.11083 | 16.57110 | 628 ft | 17 kts | 249° |
| 2026-04-21 19:42 | 48.11108 | 16.56939 | 626 ft | 17 kts | 296° |
| 2026-04-21 19:43 | 48.11114 | 16.56922 | 627 ft | 0 kts | 298° |
| 2026-04-21 19:43 | 48.11117 | 16.56911 | 627 ft | 10 kts | 294° |
| 2026-04-21 19:43 | 48.11289 | 16.56380 | 626 ft | 103 kts | 295° |
| 2026-04-21 19:43 | 48.11731 | 16.55024 | 676 ft | 178 kts | 295° |
| 2026-04-21 19:44 | 48.12246 | 16.53260 | 1652 ft | 189 kts | 296° |
| 2026-04-21 19:44 | 48.12591 | 16.51353 | 2552 ft | 195 kts | 277° |
| 2026-04-21 19:44 | 48.12140 | 16.49304 | 2734 ft | 228 kts | 231° |
| 2026-04-21 19:44 | 48.10766 | 16.48014 | 2892 ft | 248 kts | 190° |
| 2026-04-21 19:45 | 48.08997 | 16.48040 | 3123 ft | 263 kts | 172° |
| 2026-04-21 19:45 | 48.07153 | 16.48237 | 3673 ft | 271 kts | 178° |
| 2026-04-21 19:45 | 48.06607 | 16.48252 | 3850 ft | 273 kts | 179° |
| 2026-04-21 19:46 | 48.05295 | 16.48123 | 4248 ft | 277 kts | 190° |
| 2026-04-21 19:46 | 48.03543 | 16.46965 | 4844 ft | 277 kts | 218° |
| 2026-04-21 19:46 | 48.02011 | 16.45186 | 5384 ft | 282 kts | 217° |
| 2026-04-21 19:46 | 48.00399 | 16.43496 | 6089 ft | 282 kts | 214° |
| 2026-04-21 19:47 | 47.98712 | 16.42108 | 6570 ft | 283 kts | 194° |
| 2026-04-21 19:47 | 47.96763 | 16.42110 | 7050 ft | 281 kts | 163° |
| 2026-04-21 19:47 | 47.94861 | 16.42884 | 7500 ft | 286 kts | 163° |
| 2026-04-21 19:47 | 47.92922 | 16.43604 | 8104 ft | 288 kts | 165° |
| 2026-04-21 19:48 | 47.90966 | 16.44307 | 8729 ft | 289 kts | 165° |
| 2026-04-21 19:48 | 47.89002 | 16.45009 | 9318 ft | 292 kts | 166° |
| 2026-04-21 19:48 | 47.87002 | 16.45720 | 9791 ft | 298 kts | 166° |
| 2026-04-21 19:48 | 47.84967 | 16.46441 | 10227 ft | 305 kts | 166° |
| 2026-04-21 19:49 | 47.82837 | 16.47196 | 10362 ft | 322 kts | 166° |
| 2026-04-21 19:49 | 47.80600 | 16.47985 | 10513 ft | 339 kts | 166° |
| 2026-04-21 19:49 | 47.78233 | 16.48818 | 10658 ft | 359 kts | 166° |
| 2026-04-21 19:49 | 47.75741 | 16.49694 | 10958 ft | 375 kts | 166° |
| 2026-04-21 19:50 | 47.74045 | 16.50290 | 11296 ft | 382 kts | 166° |
| 2026-04-21 19:50 | 47.70556 | 16.51513 | 12362 ft | 386 kts | 167° |
| 2026-04-21 19:50 | 47.67927 | 16.52433 | 13161 ft | 391 kts | 167° |
| 2026-04-21 19:50 | 47.65336 | 16.53485 | 13730 ft | 393 kts | 158° |
| 2026-04-21 19:51 | 47.63054 | 16.55754 | 14243 ft | 401 kts | 134° |
| 2026-04-21 19:51 | 47.61416 | 16.59100 | 14926 ft | 404 kts | 116° |
| 2026-04-21 19:51 | 47.60312 | 16.62920 | 15432 ft | 406 kts | 111° |
| 2026-04-21 19:51 | 47.59229 | 16.66801 | 16103 ft | 410 kts | 112° |
| 2026-04-21 19:52 | 47.58066 | 16.70648 | 16681 ft | 407 kts | 118° |
| 2026-04-21 19:52 | 47.56227 | 16.73885 | 17033 ft | 417 kts | 143° |
| 2026-04-21 19:52 | 47.53637 | 16.75794 | 17584 ft | 419 kts | 167° |
| 2026-04-21 19:52 | 47.50763 | 16.76248 | 18198 ft | 413 kts | 181° |
| 2026-04-21 19:53 | 47.47857 | 16.76373 | 18556 ft | 423 kts | 179° |
| 2026-04-21 19:53 | 47.44903 | 16.76611 | 19052 ft | 426 kts | 178° |
| 2026-04-21 19:53 | 47.41927 | 16.76893 | 19658 ft | 427 kts | 178° |
| 2026-04-21 19:53 | 47.38950 | 16.77185 | 20205 ft | 430 kts | 178° |
| 2026-04-21 19:54 | 47.35991 | 16.77470 | 20715 ft | 433 kts | 179° |
| 2026-04-21 19:54 | 47.32973 | 16.77756 | 21201 ft | 436 kts | 179° |
| 2026-04-21 19:54 | 47.29934 | 16.78040 | 21700 ft | 439 kts | 179° |
| 2026-04-21 19:54 | 47.26871 | 16.78324 | 22211 ft | 442 kts | 179° |
| 2026-04-21 19:55 | 47.23796 | 16.78608 | 22705 ft | 444 kts | 179° |
| 2026-04-21 19:55 | 47.20693 | 16.78894 | 23193 ft | 447 kts | 179° |
| 2026-04-21 19:55 | 47.17573 | 16.79182 | 23646 ft | 451 kts | 179° |
| 2026-04-21 19:55 | 47.14430 | 16.79470 | 24011 ft | 455 kts | 179° |
| 2026-04-21 19:56 | 47.11259 | 16.79762 | 24402 ft | 458 kts | 179° |
| 2026-04-21 19:56 | 47.08063 | 16.80057 | 24789 ft | 460 kts | 179° |
| 2026-04-21 19:56 | 47.04859 | 16.80352 | 25176 ft | 463 kts | 179° |
| 2026-04-21 19:56 | 47.01632 | 16.80648 | 25548 ft | 466 kts | 179° |
| 2026-04-21 19:57 | 46.98385 | 16.80946 | 25906 ft | 469 kts | 179° |
| 2026-04-21 19:57 | 46.95153 | 16.81242 | 26247 ft | 472 kts | 179° |
| 2026-04-21 19:57 | 46.91874 | 16.81550 | 26596 ft | 472 kts | 178° |
| 2026-04-21 19:57 | 46.88610 | 16.82381 | 26815 ft | 483 kts | 166° |
| 2026-04-21 19:58 | 46.85487 | 16.84277 | 27131 ft | 490 kts | 153° |
| 2026-04-21 19:58 | 46.82650 | 16.87067 | 27504 ft | 492 kts | 141° |
| 2026-04-21 19:58 | 46.80066 | 16.90368 | 27759 ft | 496 kts | 140° |
| 2026-04-21 19:58 | 46.77461 | 16.93711 | 28033 ft | 500 kts | 140° |
| 2026-04-21 19:59 | 46.74833 | 16.97050 | 28389 ft | 502 kts | 140° |
| 2026-04-21 19:59 | 46.72183 | 17.00383 | 28711 ft | 504 kts | 141° |
| 2026-04-21 19:59 | 46.69511 | 17.03712 | 29020 ft | 506 kts | 141° |
| 2026-04-21 19:59 | 46.66824 | 17.07040 | 29288 ft | 509 kts | 141° |
| 2026-04-21 20:00 | 46.64109 | 17.10389 | 29558 ft | 511 kts | 141° |
| 2026-04-21 20:00 | 46.61383 | 17.13745 | 29810 ft | 514 kts | 141° |
| 2026-04-21 20:00 | 46.58651 | 17.17103 | 30039 ft | 516 kts | 141° |
| 2026-04-21 20:00 | 46.55909 | 17.20470 | 30311 ft | 517 kts | 141° |
| 2026-04-21 20:01 | 46.53159 | 17.23843 | 30608 ft | 517 kts | 141° |
| 2026-04-21 20:01 | 46.50416 | 17.27205 | 30908 ft | 516 kts | 141° |
| 2026-04-21 20:01 | 46.47666 | 17.30571 | 31174 ft | 517 kts | 142° |
| 2026-04-21 20:01 | 46.44950 | 17.33891 | 31337 ft | 520 kts | 142° |
| 2026-04-21 20:02 | 46.42179 | 17.37273 | 31571 ft | 521 kts | 142° |
| 2026-04-21 20:02 | 46.39408 | 17.40651 | 31851 ft | 521 kts | 142° |
| 2026-04-21 20:02 | 46.36637 | 17.44024 | 32165 ft | 520 kts | 142° |
| 2026-04-21 20:02 | 46.33864 | 17.47396 | 32461 ft | 520 kts | 142° |
| 2026-04-21 20:03 | 46.31094 | 17.50758 | 32772 ft | 520 kts | 142° |
| 2026-04-21 20:03 | 46.28320 | 17.54122 | 33058 ft | 520 kts | 142° |
| 2026-04-21 20:03 | 46.25539 | 17.57488 | 33335 ft | 520 kts | 142° |
| 2026-04-21 20:03 | 46.22754 | 17.60854 | 33616 ft | 521 kts | 142° |
| 2026-04-21 20:04 | 46.19969 | 17.64216 | 33777 ft | 523 kts | 143° |
| 2026-04-21 20:04 | 46.17165 | 17.67595 | 33948 ft | 526 kts | 143° |
| 2026-04-21 20:04 | 46.14361 | 17.70972 | 34237 ft | 525 kts | 143° |
| 2026-04-21 20:04 | 46.11562 | 17.74338 | 34529 ft | 523 kts | 143° |
| 2026-04-21 20:05 | 46.08775 | 17.77687 | 34862 ft | 521 kts | 143° |
| 2026-04-21 20:05 | 46.06027 | 17.80984 | 35142 ft | 520 kts | 143° |
| 2026-04-21 20:05 | 46.03204 | 17.84364 | 35377 ft | 520 kts | 143° |
| 2026-04-21 20:05 | 46.00457 | 17.87648 | 35595 ft | 521 kts | 143° |
| 2026-04-21 20:06 | 45.97671 | 17.90975 | 35839 ft | 520 kts | 143° |
| 2026-04-21 20:06 | 45.94884 | 17.94300 | 36028 ft | 521 kts | 143° |
| 2026-04-21 20:06 | 45.92085 | 17.97633 | 36193 ft | 522 kts | 143° |
| 2026-04-21 20:06 | 45.89284 | 18.00966 | 36411 ft | 522 kts | 143° |
| 2026-04-21 20:07 | 45.86493 | 18.04284 | 36682 ft | 521 kts | 143° |
| 2026-04-21 20:07 | 45.83697 | 18.07600 | 36944 ft | 520 kts | 143° |
| 2026-04-21 20:07 | 45.80804 | 18.10690 | 37033 ft | 519 kts | 150° |
| 2026-04-21 20:08 | 45.74428 | 18.15523 | 37099 ft | 517 kts | 161° |
| 2026-04-21 20:08 | 45.67674 | 18.18830 | 37095 ft | 510 kts | 166° |
| 2026-04-21 20:09 | 45.60944 | 18.21944 | 37103 ft | 507 kts | 166° |
| 2026-04-21 20:09 | 45.54252 | 18.25084 | 37097 ft | 505 kts | 166° |
| 2026-04-21 20:10 | 45.47597 | 18.28234 | 37083 ft | 504 kts | 166° |
| 2026-04-21 20:10 | 45.40986 | 18.31364 | 37097 ft | 504 kts | 166° |
| 2026-04-21 20:11 | 45.34306 | 18.34517 | 37097 ft | 506 kts | 166° |
| 2026-04-21 20:11 | 45.27602 | 18.37671 | 37096 ft | 508 kts | 166° |
| 2026-04-21 20:12 | 45.20883 | 18.40825 | 37097 ft | 510 kts | 166° |
| 2026-04-21 20:12 | 45.15272 | 18.43453 | 37095 ft | 511 kts | 166° |
| 2026-04-21 20:13 | 45.07375 | 18.47143 | 37095 ft | 512 kts | 166° |
| 2026-04-21 20:13 | 45.00657 | 18.50275 | 37092 ft | 511 kts | 166° |
| 2026-04-21 20:14 | 44.93897 | 18.53416 | 37095 ft | 512 kts | 166° |
| 2026-04-21 20:14 | 44.87118 | 18.56559 | 37091 ft | 512 kts | 166° |
| 2026-04-21 20:15 | 44.80354 | 18.59687 | 37077 ft | 511 kts | 167° |
| 2026-04-21 20:15 | 44.73593 | 18.62806 | 37081 ft | 511 kts | 167° |
| 2026-04-21 20:16 | 44.66835 | 18.65917 | 37081 ft | 511 kts | 167° |
| 2026-04-21 20:16 | 44.60119 | 18.68999 | 37053 ft | 510 kts | 167° |
| 2026-04-21 20:17 | 44.53367 | 18.72091 | 37075 ft | 511 kts | 168° |
| 2026-04-21 20:17 | 44.46604 | 18.75180 | 37078 ft | 511 kts | 168° |
| 2026-04-21 20:18 | 44.40978 | 18.77744 | 37076 ft | 512 kts | 168° |
| 2026-04-21 20:18 | 44.33047 | 18.81348 | 37062 ft | 513 kts | 168° |
| 2026-04-21 20:19 | 44.26261 | 18.84427 | 37087 ft | 513 kts | 168° |
| 2026-04-21 20:19 | 44.19488 | 18.87491 | 37083 ft | 514 kts | 168° |
| 2026-04-21 20:20 | 44.12681 | 18.90563 | 37070 ft | 514 kts | 168° |
| 2026-04-21 20:20 | 44.05864 | 18.93632 | 37061 ft | 515 kts | 168° |
| 2026-04-21 20:21 | 43.99041 | 18.96697 | 37061 ft | 514 kts | 168° |
| 2026-04-21 20:21 | 43.92244 | 18.99743 | 37037 ft | 513 kts | 168° |
| 2026-04-21 20:22 | 43.85459 | 19.02774 | 37049 ft | 511 kts | 168° |
| 2026-04-21 20:22 | 43.76460 | 19.06783 | 37015 ft | 510 kts | 168° |
| 2026-04-21 20:23 | 43.69712 | 19.09787 | 37038 ft | 508 kts | 168° |
| 2026-04-21 20:23 | 43.62987 | 19.12770 | 37041 ft | 507 kts | 168° |
| 2026-04-21 20:24 | 43.56274 | 19.15744 | 37037 ft | 506 kts | 168° |
| 2026-04-21 20:24 | 43.49587 | 19.18689 | 37027 ft | 504 kts | 168° |
| 2026-04-21 20:25 | 43.42907 | 19.21627 | 37031 ft | 504 kts | 168° |
| 2026-04-21 20:25 | 43.36234 | 19.24559 | 37053 ft | 503 kts | 168° |
| 2026-04-21 20:26 | 43.29613 | 19.27462 | 37035 ft | 503 kts | 168° |
| 2026-04-21 20:26 | 43.22936 | 19.30382 | 37041 ft | 503 kts | 168° |
| 2026-04-21 20:27 | 43.16259 | 19.33295 | 37044 ft | 503 kts | 168° |
| 2026-04-21 20:27 | 43.09583 | 19.36201 | 37037 ft | 503 kts | 168° |
| 2026-04-21 20:28 | 43.02910 | 19.39098 | 37039 ft | 502 kts | 168° |
| 2026-04-21 20:28 | 42.96282 | 19.41972 | 37042 ft | 502 kts | 168° |
| 2026-04-21 20:29 | 42.89610 | 19.44855 | 37033 ft | 502 kts | 168° |
| 2026-04-21 20:29 | 42.82946 | 19.47730 | 37032 ft | 503 kts | 168° |
| 2026-04-21 20:30 | 42.76269 | 19.50604 | 37041 ft | 503 kts | 168° |
| 2026-04-21 20:30 | 42.69577 | 19.53476 | 37043 ft | 504 kts | 168° |
| 2026-04-21 20:31 | 42.62875 | 19.56349 | 37024 ft | 505 kts | 168° |
| 2026-04-21 20:31 | 42.56172 | 19.59216 | 37001 ft | 505 kts | 168° |
| 2026-04-21 20:32 | 42.49628 | 19.62798 | 37046 ft | 509 kts | 159° |
| 2026-04-21 20:32 | 42.43315 | 19.67174 | 37030 ft | 511 kts | 158° |
| 2026-04-21 20:33 | 42.36984 | 19.71551 | 37022 ft | 511 kts | 158° |
| 2026-04-21 20:33 | 42.30649 | 19.75859 | 37023 ft | 509 kts | 159° |
| 2026-04-21 20:34 | 42.24341 | 19.80130 | 37025 ft | 510 kts | 159° |
| 2026-04-21 20:34 | 42.17969 | 19.84427 | 37020 ft | 514 kts | 158° |
| 2026-04-21 20:35 | 42.11555 | 19.88740 | 37018 ft | 515 kts | 159° |
| 2026-04-21 20:35 | 42.05130 | 19.93054 | 36977 ft | 516 kts | 159° |
| 2026-04-21 20:36 | 41.98701 | 19.97364 | 36998 ft | 516 kts | 159° |
| 2026-04-21 20:36 | 41.92316 | 20.01634 | 37004 ft | 515 kts | 159° |
| 2026-04-21 20:37 | 41.85897 | 20.05917 | 36980 ft | 514 kts | 159° |
| 2026-04-21 20:37 | 41.79488 | 20.10183 | 36972 ft | 514 kts | 159° |
| 2026-04-21 20:38 | 41.73094 | 20.14431 | 36973 ft | 512 kts | 159° |
| 2026-04-21 20:38 | 41.66696 | 20.18673 | 36966 ft | 512 kts | 158° |
| 2026-04-21 20:39 | 41.60302 | 20.22895 | 36951 ft | 513 kts | 159° |
| 2026-04-21 20:39 | 41.53944 | 20.27089 | 36956 ft | 513 kts | 158° |
| 2026-04-21 20:40 | 41.47530 | 20.31313 | 36979 ft | 514 kts | 159° |
| 2026-04-21 20:40 | 41.41122 | 20.35521 | 36981 ft | 514 kts | 159° |
| 2026-04-21 20:41 | 41.34683 | 20.39742 | 36955 ft | 515 kts | 159° |
| 2026-04-21 20:41 | 41.28248 | 20.43949 | 36965 ft | 516 kts | 159° |
| 2026-04-21 20:42 | 41.21777 | 20.48171 | 36962 ft | 517 kts | 159° |
| 2026-04-21 20:42 | 41.15381 | 20.52338 | 36962 ft | 515 kts | 159° |
| 2026-04-21 20:43 | 41.08960 | 20.56509 | 36964 ft | 512 kts | 159° |
| 2026-04-21 20:43 | 41.02576 | 20.60645 | 36970 ft | 511 kts | 159° |
| 2026-04-21 20:44 | 40.96195 | 20.64772 | 36987 ft | 509 kts | 159° |
| 2026-04-21 20:44 | 40.89829 | 20.68881 | 36979 ft | 508 kts | 159° |
| 2026-04-21 20:45 | 40.83510 | 20.72951 | 36979 ft | 509 kts | 159° |
| 2026-04-21 20:45 | 40.77146 | 20.77040 | 36977 ft | 509 kts | 159° |
| 2026-04-21 20:46 | 40.70767 | 20.81131 | 36965 ft | 509 kts | 159° |
| 2026-04-21 20:46 | 40.64394 | 20.85209 | 36971 ft | 509 kts | 159° |
| 2026-04-21 20:47 | 40.58016 | 20.89283 | 36998 ft | 509 kts | 159° |
| 2026-04-21 20:47 | 40.51645 | 20.93356 | 36976 ft | 510 kts | 157° |
| 2026-04-21 20:48 | 40.45645 | 20.98334 | 36970 ft | 516 kts | 146° |
| 2026-04-21 20:48 | 40.40215 | 21.04559 | 36989 ft | 518 kts | 141° |
| 2026-04-21 20:49 | 40.34837 | 21.10865 | 36993 ft | 518 kts | 142° |
| 2026-04-21 20:49 | 40.29420 | 21.17123 | 36994 ft | 519 kts | 142° |
| 2026-04-21 20:50 | 40.23988 | 21.23348 | 36999 ft | 519 kts | 142° |
| 2026-04-21 20:50 | 40.18542 | 21.29573 | 36974 ft | 520 kts | 142° |
| 2026-04-21 20:51 | 40.13131 | 21.35749 | 36996 ft | 520 kts | 142° |
| 2026-04-21 20:51 | 40.07672 | 21.41970 | 36997 ft | 521 kts | 142° |
| 2026-04-21 20:52 | 40.02207 | 21.48184 | 37001 ft | 521 kts | 142° |
| 2026-04-21 20:52 | 39.96731 | 21.54396 | 36989 ft | 521 kts | 143° |
| 2026-04-21 20:53 | 39.91255 | 21.60588 | 36977 ft | 521 kts | 143° |
| 2026-04-21 20:53 | 39.85773 | 21.66769 | 36989 ft | 521 kts | 143° |
| 2026-04-21 20:54 | 39.80328 | 21.72896 | 36991 ft | 521 kts | 143° |
| 2026-04-21 20:54 | 39.74839 | 21.79064 | 36986 ft | 521 kts | 143° |
| 2026-04-21 20:55 | 39.69349 | 21.85218 | 36961 ft | 520 kts | 143° |
| 2026-04-21 20:55 | 39.63872 | 21.91347 | 36948 ft | 519 kts | 143° |
| 2026-04-21 20:56 | 39.58408 | 21.97447 | 36954 ft | 518 kts | 143° |
| 2026-04-21 20:56 | 39.52936 | 22.03542 | 36955 ft | 517 kts | 143° |
| 2026-04-21 20:57 | 39.47509 | 22.09572 | 36948 ft | 517 kts | 143° |
| 2026-04-21 20:57 | 39.42040 | 22.15637 | 36945 ft | 517 kts | 143° |
| 2026-04-21 20:58 | 39.36564 | 22.21697 | 36934 ft | 517 kts | 143° |
| 2026-04-21 20:58 | 39.31093 | 22.27739 | 36953 ft | 517 kts | 143° |
| 2026-04-21 20:59 | 39.25623 | 22.33767 | 36958 ft | 518 kts | 143° |
| 2026-04-21 20:59 | 39.20139 | 22.39797 | 36959 ft | 518 kts | 143° |
| 2026-04-21 21:00 | 39.14650 | 22.45820 | 36951 ft | 518 kts | 143° |
| 2026-04-21 21:00 | 39.09161 | 22.51831 | 36933 ft | 517 kts | 143° |
| 2026-04-21 21:01 | 39.03684 | 22.57815 | 36949 ft | 516 kts | 143° |
| 2026-04-21 21:01 | 38.98244 | 22.63746 | 36950 ft | 515 kts | 143° |
| 2026-04-21 21:02 | 38.92777 | 22.69695 | 36959 ft | 515 kts | 143° |
| 2026-04-21 21:02 | 38.87309 | 22.75633 | 36945 ft | 514 kts | 143° |
| 2026-04-21 21:03 | 38.81850 | 22.81548 | 36947 ft | 513 kts | 143° |
| 2026-04-21 21:03 | 38.76395 | 22.87447 | 36957 ft | 512 kts | 144° |
| 2026-04-21 21:04 | 38.70938 | 22.93334 | 36957 ft | 513 kts | 144° |
| 2026-04-21 21:04 | 38.65516 | 22.99172 | 36948 ft | 512 kts | 144° |
| 2026-04-21 21:05 | 38.60055 | 23.05041 | 36954 ft | 512 kts | 144° |
| 2026-04-21 21:05 | 38.54594 | 23.10898 | 36947 ft | 513 kts | 144° |
| 2026-04-21 21:06 | 38.49113 | 23.16763 | 36949 ft | 514 kts | 144° |
| 2026-04-21 21:06 | 38.43630 | 23.22619 | 36949 ft | 515 kts | 144° |
| 2026-04-21 21:07 | 38.38127 | 23.28485 | 36950 ft | 516 kts | 144° |
| 2026-04-21 21:07 | 38.32619 | 23.34344 | 36974 ft | 516 kts | 144° |
| 2026-04-21 21:08 | 38.27098 | 23.40205 | 36974 ft | 517 kts | 144° |
| 2026-04-21 21:08 | 38.21603 | 23.46030 | 36933 ft | 517 kts | 144° |
| 2026-04-21 21:09 | 38.16075 | 23.51875 | 36933 ft | 517 kts | 144° |
| 2026-04-21 21:09 | 38.10537 | 23.57708 | 36935 ft | 516 kts | 144° |
| 2026-04-21 21:10 | 38.05002 | 23.63526 | 36951 ft | 516 kts | 144° |
| 2026-04-21 21:10 | 37.99467 | 23.69337 | 36940 ft | 515 kts | 144° |
| 2026-04-21 21:11 | 37.93951 | 23.75117 | 36960 ft | 514 kts | 144° |
| 2026-04-21 21:11 | 37.88524 | 23.81030 | 36961 ft | 517 kts | 139° |
| 2026-04-21 21:12 | 37.84558 | 23.86713 | 36967 ft | 518 kts | 133° |
| 2026-04-21 21:12 | 37.79218 | 23.94871 | 36969 ft | 518 kts | 133° |
| 2026-04-21 21:13 | 37.74584 | 24.01839 | 36969 ft | 518 kts | 133° |
| 2026-04-21 21:13 | 37.70708 | 24.07615 | 36958 ft | 518 kts | 133° |
| 2026-04-21 21:14 | 37.66042 | 24.14554 | 36956 ft | 517 kts | 133° |
| 2026-04-21 21:14 | 37.61376 | 24.21488 | 36961 ft | 517 kts | 133° |
| 2026-04-21 21:15 | 37.56561 | 24.28208 | 36957 ft | 514 kts | 141° |
| 2026-04-21 21:15 | 37.50977 | 24.33767 | 36957 ft | 508 kts | 152° |
| 2026-04-21 21:16 | 37.44961 | 24.38410 | 36964 ft | 507 kts | 153° |
| 2026-04-21 21:16 | 37.38937 | 24.43062 | 36946 ft | 508 kts | 153° |
| 2026-04-21 21:17 | 37.32958 | 24.47727 | 36957 ft | 508 kts | 153° |
| 2026-04-21 21:17 | 37.26948 | 24.52429 | 36962 ft | 508 kts | 153° |
| 2026-04-21 21:18 | 37.20937 | 24.57122 | 36963 ft | 508 kts | 153° |
| 2026-04-21 21:18 | 37.14921 | 24.61807 | 36964 ft | 508 kts | 153° |
| 2026-04-21 21:19 | 37.08948 | 24.66449 | 36963 ft | 507 kts | 153° |
| 2026-04-21 21:19 | 37.02944 | 24.71107 | 36967 ft | 507 kts | 153° |
| 2026-04-21 21:20 | 36.96949 | 24.75750 | 36970 ft | 506 kts | 153° |
| 2026-04-21 21:20 | 36.90956 | 24.80383 | 36973 ft | 506 kts | 153° |
| 2026-04-21 21:21 | 36.84973 | 24.85026 | 36966 ft | 505 kts | 152° |
| 2026-04-21 21:21 | 36.79032 | 24.89639 | 36967 ft | 505 kts | 152° |
| 2026-04-21 21:22 | 36.73064 | 24.94262 | 36971 ft | 505 kts | 153° |
| 2026-04-21 21:22 | 36.67084 | 24.98872 | 36989 ft | 505 kts | 153° |
| 2026-04-21 21:23 | 36.61097 | 25.03451 | 36976 ft | 505 kts | 153° |
| 2026-04-21 21:23 | 36.55102 | 25.08025 | 36992 ft | 505 kts | 153° |
| 2026-04-21 21:24 | 36.49105 | 25.12598 | 36991 ft | 506 kts | 153° |
| 2026-04-21 21:24 | 36.43108 | 25.17165 | 36990 ft | 506 kts | 153° |
| 2026-04-21 21:25 | 36.37098 | 25.21733 | 36989 ft | 506 kts | 153° |
| 2026-04-21 21:25 | 36.31090 | 25.26292 | 36978 ft | 506 kts | 153° |
| 2026-04-21 21:26 | 36.25117 | 25.30817 | 36998 ft | 506 kts | 153° |
| 2026-04-21 21:26 | 36.19104 | 25.35363 | 36984 ft | 506 kts | 153° |
| 2026-04-21 21:27 | 36.13090 | 25.39903 | 36990 ft | 506 kts | 153° |
| 2026-04-21 21:27 | 36.07069 | 25.44439 | 37000 ft | 506 kts | 153° |
| 2026-04-21 21:28 | 36.01059 | 25.48963 | 37000 ft | 505 kts | 153° |
| 2026-04-21 21:29 | 35.92044 | 25.55735 | 37008 ft | 505 kts | 153° |
| 2026-04-21 21:29 | 35.86036 | 25.60240 | 37010 ft | 505 kts | 153° |
| 2026-04-21 21:30 | 35.80067 | 25.64706 | 37010 ft | 505 kts | 153° |
| 2026-04-21 21:30 | 35.74064 | 25.69190 | 37006 ft | 504 kts | 153° |
| 2026-04-21 21:31 | 35.68058 | 25.73668 | 37013 ft | 504 kts | 153° |
| 2026-04-21 21:31 | 35.62039 | 25.78148 | 37013 ft | 505 kts | 153° |
| 2026-04-21 21:32 | 35.56025 | 25.82616 | 37011 ft | 505 kts | 153° |
| 2026-04-21 21:32 | 35.50041 | 25.87054 | 37015 ft | 505 kts | 153° |
| 2026-04-21 21:33 | 35.44024 | 25.91509 | 37022 ft | 505 kts | 153° |
| 2026-04-21 21:33 | 35.37994 | 25.95965 | 37018 ft | 505 kts | 153° |
| 2026-04-21 21:34 | 35.31968 | 26.00411 | 37016 ft | 506 kts | 153° |
| 2026-04-21 21:34 | 35.25937 | 26.04853 | 37023 ft | 506 kts | 153° |
| 2026-04-21 21:35 | 35.19942 | 26.09262 | 37022 ft | 505 kts | 153° |
| 2026-04-21 21:35 | 35.13904 | 26.13694 | 37028 ft | 506 kts | 153° |
| 2026-04-21 21:36 | 35.07876 | 26.18142 | 37027 ft | 507 kts | 151° |
| 2026-04-21 21:36 | 35.02266 | 26.23452 | 37030 ft | 512 kts | 143° |
| 2026-04-21 21:37 | 34.96887 | 26.29155 | 37026 ft | 512 kts | 143° |
| 2026-04-21 21:37 | 34.91498 | 26.34821 | 37022 ft | 511 kts | 143° |
| 2026-04-21 21:38 | 34.86123 | 26.40411 | 37026 ft | 511 kts | 143° |
| 2026-04-21 21:38 | 34.80695 | 26.46029 | 37027 ft | 512 kts | 143° |
| 2026-04-21 21:39 | 34.75264 | 26.51640 | 37030 ft | 512 kts | 143° |
| 2026-04-21 21:39 | 34.69829 | 26.57250 | 37033 ft | 512 kts | 143° |
| 2026-04-21 21:40 | 34.64426 | 26.62817 | 37014 ft | 513 kts | 143° |
| 2026-04-21 21:40 | 34.58978 | 26.68422 | 37031 ft | 513 kts | 143° |
| 2026-04-21 21:41 | 34.53519 | 26.74026 | 37030 ft | 513 kts | 143° |
| 2026-04-21 21:41 | 34.48067 | 26.79614 | 37033 ft | 514 kts | 143° |
| 2026-04-21 21:42 | 34.42605 | 26.85202 | 37051 ft | 514 kts | 143° |
| 2026-04-21 21:42 | 34.37134 | 26.90790 | 37057 ft | 514 kts | 143° |
| 2026-04-21 21:43 | 34.31700 | 26.96331 | 37045 ft | 514 kts | 143° |
| 2026-04-21 21:43 | 34.26236 | 27.01892 | 37044 ft | 513 kts | 144° |
| 2026-04-21 21:44 | 34.20765 | 27.07450 | 37043 ft | 513 kts | 144° |
| 2026-04-21 21:44 | 34.15295 | 27.12998 | 37047 ft | 513 kts | 144° |
| 2026-04-21 21:45 | 34.09820 | 27.18541 | 37041 ft | 513 kts | 144° |
| 2026-04-21 21:45 | 34.04347 | 27.24074 | 37033 ft | 513 kts | 144° |
| 2026-04-21 21:46 | 33.98913 | 27.29556 | 37043 ft | 512 kts | 144° |
| 2026-04-21 21:46 | 33.93073 | 27.34370 | 37046 ft | 504 kts | 155° |
| 2026-04-21 21:47 | 33.86743 | 27.37892 | 37054 ft | 500 kts | 161° |
| 2026-04-21 21:47 | 33.80394 | 27.41181 | 37055 ft | 500 kts | 161° |
| 2026-04-21 21:48 | 33.74007 | 27.44527 | 37046 ft | 501 kts | 161° |
| 2026-04-21 21:48 | 33.67625 | 27.47897 | 37057 ft | 501 kts | 161° |
| 2026-04-21 21:49 | 33.61244 | 27.51268 | 37057 ft | 501 kts | 161° |
| 2026-04-21 21:49 | 33.54855 | 27.54636 | 37056 ft | 501 kts | 161° |
| 2026-04-21 21:50 | 33.48464 | 27.57999 | 37033 ft | 501 kts | 161° |
| 2026-04-21 21:50 | 33.42091 | 27.61346 | 37066 ft | 501 kts | 161° |
| 2026-04-21 21:51 | 33.35747 | 27.64672 | 37068 ft | 501 kts | 161° |
| 2026-04-21 21:51 | 33.29362 | 27.68015 | 37056 ft | 501 kts | 161° |
| 2026-04-21 21:52 | 33.22971 | 27.71354 | 37051 ft | 501 kts | 161° |
| 2026-04-21 21:52 | 33.16573 | 27.74693 | 37066 ft | 501 kts | 161° |
| 2026-04-21 21:53 | 33.10186 | 27.78021 | 37063 ft | 501 kts | 161° |
| 2026-04-21 21:53 | 33.03843 | 27.81320 | 37062 ft | 501 kts | 162° |
| 2026-04-21 21:54 | 32.97449 | 27.84641 | 37063 ft | 501 kts | 162° |
| 2026-04-21 21:54 | 32.91067 | 27.87950 | 37056 ft | 500 kts | 162° |
| 2026-04-21 21:55 | 32.84682 | 27.91256 | 37064 ft | 500 kts | 162° |
| 2026-04-21 21:55 | 32.78289 | 27.94560 | 37063 ft | 500 kts | 162° |
| 2026-04-21 21:56 | 32.71946 | 27.97833 | 37069 ft | 500 kts | 162° |
| 2026-04-21 21:56 | 32.65553 | 28.01127 | 37068 ft | 501 kts | 162° |
| 2026-04-21 21:57 | 32.59155 | 28.04419 | 37068 ft | 501 kts | 162° |
| 2026-04-21 21:57 | 32.52762 | 28.07703 | 37060 ft | 501 kts | 162° |
| 2026-04-21 21:58 | 32.46357 | 28.10988 | 37067 ft | 501 kts | 162° |
| 2026-04-21 21:58 | 32.39957 | 28.14265 | 37049 ft | 501 kts | 162° |
| 2026-04-21 21:59 | 32.33561 | 28.17535 | 37065 ft | 500 kts | 162° |
| 2026-04-21 21:59 | 32.27200 | 28.20781 | 37069 ft | 501 kts | 162° |
| 2026-04-21 22:00 | 32.20802 | 28.24042 | 37068 ft | 501 kts | 162° |
| 2026-04-21 22:00 | 32.14396 | 28.27303 | 37075 ft | 501 kts | 162° |
| 2026-04-21 22:01 | 32.07997 | 28.30555 | 37068 ft | 501 kts | 162° |
| 2026-04-21 22:01 | 32.01589 | 28.33807 | 37072 ft | 501 kts | 162° |
| 2026-04-21 22:02 | 31.95228 | 28.37030 | 37060 ft | 501 kts | 162° |
| 2026-04-21 22:02 | 31.88821 | 28.40272 | 37070 ft | 501 kts | 162° |
| 2026-04-21 22:03 | 31.83498 | 28.42958 | 37061 ft | 500 kts | 163° |
| 2026-04-21 22:03 | 31.77091 | 28.46163 | 37075 ft | 500 kts | 163° |
| 2026-04-21 22:04 | 31.70670 | 28.49370 | 37075 ft | 501 kts | 163° |
| 2026-04-21 22:04 | 31.64250 | 28.52577 | 37077 ft | 501 kts | 163° |
| 2026-04-21 22:05 | 31.57826 | 28.55779 | 37043 ft | 501 kts | 163° |
| 2026-04-21 22:05 | 31.51438 | 28.58957 | 37070 ft | 501 kts | 163° |
| 2026-04-21 22:06 | 31.45014 | 28.62150 | 37075 ft | 501 kts | 163° |
| 2026-04-21 22:06 | 31.38587 | 28.65341 | 37075 ft | 502 kts | 163° |
| 2026-04-21 22:07 | 31.32150 | 28.68532 | 37068 ft | 502 kts | 163° |
| 2026-04-21 22:07 | 31.25710 | 28.71719 | 37071 ft | 502 kts | 163° |
| 2026-04-21 22:08 | 31.19262 | 28.74906 | 37080 ft | 503 kts | 163° |
| 2026-04-21 22:08 | 31.12808 | 28.78092 | 37064 ft | 503 kts | 163° |
| 2026-04-21 22:09 | 31.06350 | 28.81274 | 37075 ft | 504 kts | 163° |
| 2026-04-21 22:09 | 30.99938 | 28.84430 | 37060 ft | 503 kts | 164° |
| 2026-04-21 22:10 | 30.93473 | 28.87606 | 37076 ft | 504 kts | 164° |
| 2026-04-21 22:10 | 30.87014 | 28.90775 | 37074 ft | 504 kts | 164° |
| 2026-04-21 22:11 | 30.80541 | 28.93947 | 37076 ft | 504 kts | 164° |
| 2026-04-21 22:11 | 30.74067 | 28.97114 | 37037 ft | 505 kts | 165° |
| 2026-04-21 22:12 | 30.67595 | 29.00276 | 37071 ft | 504 kts | 165° |
| 2026-04-21 22:12 | 30.61120 | 29.03436 | 37079 ft | 505 kts | 165° |
| 2026-04-21 22:13 | 30.54645 | 29.06606 | 37074 ft | 507 kts | 162° |
| 2026-04-21 22:13 | 30.48536 | 29.10932 | 37080 ft | 521 kts | 148° |
| 2026-04-21 22:14 | 30.43304 | 29.16780 | 37070 ft | 530 kts | 137° |
| 2026-04-21 22:14 | 30.38289 | 29.23060 | 37070 ft | 529 kts | 140° |
| 2026-04-21 22:15 | 30.33109 | 29.29133 | 37080 ft | 529 kts | 141° |
| 2026-04-21 22:15 | 30.27978 | 29.35201 | 37074 ft | 530 kts | 140° |
| 2026-04-21 22:16 | 30.22848 | 29.41336 | 37078 ft | 531 kts | 140° |
| 2026-04-21 22:16 | 30.17709 | 29.47486 | 37076 ft | 531 kts | 140° |
| 2026-04-21 22:17 | 30.12566 | 29.53620 | 37072 ft | 531 kts | 140° |
| 2026-04-21 22:17 | 30.07413 | 29.59751 | 37051 ft | 531 kts | 141° |
| 2026-04-21 22:18 | 30.02289 | 29.65835 | 37065 ft | 532 kts | 141° |
| 2026-04-21 22:18 | 29.97119 | 29.71963 | 37060 ft | 533 kts | 141° |
| 2026-04-21 22:19 | 29.91932 | 29.78103 | 37074 ft | 534 kts | 141° |
| 2026-04-21 22:19 | 29.86743 | 29.84238 | 37050 ft | 535 kts | 141° |
| 2026-04-21 22:20 | 29.81540 | 29.90379 | 37064 ft | 536 kts | 141° |
| 2026-04-21 22:20 | 29.76320 | 29.96530 | 37058 ft | 536 kts | 141° |
| 2026-04-21 22:21 | 29.71104 | 30.02666 | 37061 ft | 536 kts | 141° |
| 2026-04-21 22:21 | 29.65887 | 30.08795 | 37058 ft | 536 kts | 141° |
| 2026-04-21 22:22 | 29.60703 | 30.14876 | 37049 ft | 535 kts | 141° |
| 2026-04-21 22:22 | 29.55491 | 30.20978 | 37058 ft | 535 kts | 141° |
| 2026-04-21 22:23 | 29.50279 | 30.27072 | 37065 ft | 534 kts | 141° |
| 2026-04-21 22:23 | 29.45068 | 30.33157 | 37047 ft | 534 kts | 141° |
| 2026-04-21 22:24 | 29.39891 | 30.39192 | 37019 ft | 533 kts | 142° |
| 2026-04-21 22:24 | 29.34720 | 30.45304 | 37055 ft | 534 kts | 141° |
| 2026-04-21 22:25 | 29.29567 | 30.51468 | 37060 ft | 536 kts | 141° |
| 2026-04-21 22:25 | 29.24391 | 30.57648 | 37060 ft | 537 kts | 141° |
| 2026-04-21 22:26 | 29.19200 | 30.63818 | 37052 ft | 538 kts | 141° |
| 2026-04-21 22:26 | 29.14000 | 30.69985 | 37058 ft | 539 kts | 141° |
| 2026-04-21 22:27 | 29.08818 | 30.76120 | 37052 ft | 539 kts | 141° |
| 2026-04-21 22:27 | 29.03605 | 30.82285 | 37026 ft | 538 kts | 142° |
| 2026-04-21 22:28 | 28.98394 | 30.88437 | 37053 ft | 538 kts | 142° |
| 2026-04-21 22:28 | 28.93183 | 30.94579 | 37197 ft | 540 kts | 142° |
| 2026-04-21 22:28 | 28.90567 | 30.97658 | 37493 ft | 539 kts | 142° |
| 2026-04-21 22:29 | 28.87961 | 31.00727 | 37850 ft | 536 kts | 142° |
| 2026-04-21 22:29 | 28.85368 | 31.03779 | 38159 ft | 535 kts | 142° |
| 2026-04-21 22:29 | 28.82807 | 31.06787 | 38400 ft | 535 kts | 142° |
| 2026-04-21 22:29 | 28.80212 | 31.09832 | 38623 ft | 535 kts | 142° |
| 2026-04-21 22:30 | 28.77613 | 31.12878 | 38805 ft | 535 kts | 142° |
| 2026-04-21 22:30 | 28.75016 | 31.15924 | 38963 ft | 536 kts | 142° |
| 2026-04-21 22:30 | 28.72409 | 31.18977 | 39013 ft | 538 kts | 142° |
| 2026-04-21 22:31 | 28.67221 | 31.25142 | 39008 ft | 539 kts | 141° |
| 2026-04-21 22:31 | 28.62203 | 31.31502 | 39061 ft | 540 kts | 140° |
| 2026-04-21 22:32 | 28.57208 | 31.37893 | 39058 ft | 540 kts | 140° |
| 2026-04-21 22:32 | 28.52215 | 31.44206 | 39061 ft | 540 kts | 140° |
| 2026-04-21 22:33 | 28.47165 | 31.50542 | 39059 ft | 540 kts | 141° |
| 2026-04-21 22:33 | 28.42110 | 31.56869 | 39052 ft | 540 kts | 141° |
| 2026-04-21 22:34 | 28.37056 | 31.63193 | 39061 ft | 541 kts | 141° |
| 2026-04-21 22:34 | 28.31988 | 31.69526 | 39052 ft | 541 kts | 141° |
| 2026-04-21 22:35 | 28.26962 | 31.75799 | 39055 ft | 540 kts | 141° |
| 2026-04-21 22:35 | 28.21904 | 31.82100 | 39045 ft | 541 kts | 141° |
| 2026-04-21 22:36 | 28.14285 | 31.91573 | 39058 ft | 542 kts | 141° |
| 2026-04-21 22:36 | 28.09195 | 31.97894 | 39053 ft | 543 kts | 141° |
| 2026-04-21 22:37 | 28.04195 | 32.04336 | 39053 ft | 549 kts | 135° |
| 2026-04-21 22:37 | 28.00033 | 32.11632 | 39047 ft | 561 kts | 125° |
| 2026-04-21 22:38 | 27.96358 | 32.19438 | 39058 ft | 562 kts | 124° |
| 2026-04-21 22:38 | 27.92675 | 32.27235 | 39052 ft | 561 kts | 125° |
| 2026-04-21 22:39 | 27.88942 | 32.34998 | 39007 ft | 560 kts | 126° |
| 2026-04-21 22:39 | 27.85215 | 32.42681 | 39040 ft | 560 kts | 126° |
| 2026-04-21 22:40 | 27.81462 | 32.50403 | 39050 ft | 560 kts | 126° |
| 2026-04-21 22:40 | 27.77702 | 32.58136 | 39034 ft | 561 kts | 126° |
| 2026-04-21 22:41 | 27.73938 | 32.65873 | 39018 ft | 562 kts | 126° |
| 2026-04-21 22:41 | 27.70166 | 32.73605 | 39023 ft | 562 kts | 126° |
| 2026-04-21 22:42 | 27.66384 | 32.81345 | 39020 ft | 564 kts | 126° |
| 2026-04-21 22:42 | 27.62595 | 32.89086 | 38986 ft | 564 kts | 126° |
| 2026-04-21 22:43 | 27.58821 | 32.96785 | 39012 ft | 564 kts | 126° |
| 2026-04-21 22:43 | 27.55016 | 33.04527 | 38993 ft | 564 kts | 126° |
| 2026-04-21 22:44 | 27.51212 | 33.12257 | 39012 ft | 564 kts | 126° |
| 2026-04-21 22:44 | 27.47399 | 33.19991 | 38974 ft | 564 kts | 126° |
| 2026-04-21 22:45 | 27.43584 | 33.27717 | 38988 ft | 564 kts | 126° |
| 2026-04-21 22:45 | 27.39771 | 33.35424 | 38981 ft | 564 kts | 126° |
| 2026-04-21 22:46 | 27.35949 | 33.43136 | 38977 ft | 564 kts | 127° |
| 2026-04-21 22:46 | 27.32149 | 33.50793 | 38959 ft | 564 kts | 127° |
| 2026-04-21 22:47 | 27.28318 | 33.58500 | 38960 ft | 564 kts | 127° |
| 2026-04-21 22:47 | 27.24478 | 33.66213 | 38971 ft | 565 kts | 127° |
| 2026-04-21 22:48 | 27.20627 | 33.73938 | 38962 ft | 566 kts | 127° |
| 2026-04-21 22:48 | 27.16924 | 33.81773 | 38970 ft | 573 kts | 120° |
| 2026-04-21 22:49 | 27.13957 | 33.90117 | 38971 ft | 577 kts | 117° |
| 2026-04-21 22:49 | 27.11072 | 33.98468 | 38944 ft | 577 kts | 118° |
| 2026-04-21 22:50 | 27.08105 | 34.06829 | 38945 ft | 577 kts | 118° |
| 2026-04-21 22:50 | 27.05102 | 34.15189 | 38934 ft | 577 kts | 118° |
| 2026-04-21 22:51 | 27.02609 | 34.22133 | 38911 ft | 577 kts | 118° |
| 2026-04-21 22:51 | 26.99614 | 34.30486 | 38920 ft | 577 kts | 118° |
| 2026-04-21 22:52 | 26.96617 | 34.38847 | 38917 ft | 577 kts | 118° |
| 2026-04-21 22:52 | 26.93615 | 34.47205 | 38914 ft | 577 kts | 118° |
| 2026-04-21 22:53 | 26.90613 | 34.55541 | 38913 ft | 577 kts | 118° |
| 2026-04-21 22:53 | 26.87605 | 34.63876 | 38905 ft | 577 kts | 118° |
| 2026-04-21 22:54 | 26.84611 | 34.72154 | 38909 ft | 577 kts | 118° |
| 2026-04-21 22:54 | 26.81595 | 34.80476 | 38890 ft | 577 kts | 118° |
| 2026-04-21 22:55 | 26.78573 | 34.88800 | 38896 ft | 576 kts | 118° |
| 2026-04-21 22:55 | 26.75546 | 34.97111 | 38888 ft | 576 kts | 118° |
| 2026-04-21 22:56 | 26.72499 | 35.05426 | 38877 ft | 576 kts | 118° |
| 2026-04-21 22:56 | 26.69455 | 35.13714 | 38885 ft | 576 kts | 118° |
| 2026-04-21 22:57 | 26.66426 | 35.21952 | 38883 ft | 576 kts | 118° |
| 2026-04-21 22:57 | 26.63370 | 35.30247 | 38874 ft | 576 kts | 118° |
| 2026-04-21 22:58 | 26.60312 | 35.38533 | 38878 ft | 577 kts | 119° |
| 2026-04-21 22:58 | 26.57245 | 35.46828 | 38873 ft | 577 kts | 119° |
| 2026-04-21 22:59 | 26.54154 | 35.55052 | 38870 ft | 576 kts | 120° |
| 2026-04-21 22:59 | 26.50985 | 35.63294 | 38874 ft | 577 kts | 120° |
| 2026-04-21 23:00 | 26.47813 | 35.71526 | 38873 ft | 577 kts | 120° |
| 2026-04-21 23:00 | 26.44650 | 35.79759 | 38841 ft | 577 kts | 120° |
| 2026-04-21 23:01 | 26.41489 | 35.87984 | 38869 ft | 577 kts | 120° |
| 2026-04-21 23:01 | 26.38316 | 35.96219 | 38870 ft | 577 kts | 120° |
| 2026-04-21 23:02 | 26.35142 | 36.04438 | 38870 ft | 578 kts | 120° |
| 2026-04-21 23:02 | 26.31974 | 36.12623 | 38870 ft | 578 kts | 120° |
| 2026-04-21 23:03 | 26.28783 | 36.20852 | 38875 ft | 578 kts | 120° |
| 2026-04-21 23:03 | 26.25587 | 36.29077 | 38871 ft | 578 kts | 120° |
| 2026-04-21 23:04 | 26.22385 | 36.37304 | 38885 ft | 578 kts | 120° |
| 2026-04-21 23:04 | 26.19201 | 36.45467 | 38886 ft | 578 kts | 120° |
| 2026-04-21 23:05 | 26.15712 | 36.53493 | 38881 ft | 571 kts | 126° |
| 2026-04-21 23:05 | 26.11850 | 36.61236 | 38871 ft | 571 kts | 127° |
| 2026-04-21 23:06 | 26.07981 | 36.68966 | 38864 ft | 572 kts | 126° |
| 2026-04-21 23:06 | 26.04164 | 36.76679 | 38849 ft | 572 kts | 126° |
| 2026-04-21 23:07 | 26.00335 | 36.84445 | 38867 ft | 572 kts | 126° |
| 2026-04-21 23:07 | 25.96495 | 36.92215 | 38866 ft | 573 kts | 126° |
| 2026-04-21 23:08 | 25.92651 | 36.99969 | 38860 ft | 573 kts | 126° |
| 2026-04-21 23:08 | 25.88804 | 37.07715 | 38871 ft | 573 kts | 126° |
| 2026-04-21 23:09 | 25.84949 | 37.15467 | 38871 ft | 573 kts | 126° |
| 2026-04-21 23:09 | 25.81117 | 37.23160 | 38854 ft | 573 kts | 126° |
| 2026-04-21 23:10 | 25.77266 | 37.30886 | 38871 ft | 572 kts | 126° |
| 2026-04-21 23:10 | 25.73422 | 37.38604 | 38844 ft | 572 kts | 126° |
| 2026-04-21 23:11 | 25.69577 | 37.46315 | 38891 ft | 570 kts | 126° |
| 2026-04-21 23:11 | 25.65738 | 37.53998 | 38891 ft | 569 kts | 126° |
| 2026-04-21 23:12 | 25.61902 | 37.61657 | 38887 ft | 568 kts | 126° |
| 2026-04-21 23:12 | 25.58060 | 37.69319 | 38902 ft | 568 kts | 126° |
| 2026-04-21 23:13 | 25.54239 | 37.76924 | 38895 ft | 568 kts | 126° |
| 2026-04-21 23:13 | 25.50395 | 37.84563 | 38890 ft | 568 kts | 126° |
| 2026-04-21 23:14 | 25.46542 | 37.92209 | 38892 ft | 568 kts | 126° |
| 2026-04-21 23:14 | 25.42679 | 37.99859 | 38878 ft | 569 kts | 126° |
| 2026-04-21 23:15 | 25.38816 | 38.07499 | 38878 ft | 569 kts | 126° |
| 2026-04-21 23:15 | 25.34939 | 38.15153 | 38873 ft | 569 kts | 126° |
| 2026-04-21 23:16 | 25.31095 | 38.22730 | 38881 ft | 569 kts | 126° |
| 2026-04-21 23:16 | 25.27214 | 38.30367 | 38883 ft | 569 kts | 126° |
| 2026-04-21 23:17 | 25.23329 | 38.38001 | 38895 ft | 569 kts | 126° |
| 2026-04-21 23:17 | 25.19445 | 38.45621 | 38887 ft | 569 kts | 126° |
| 2026-04-21 23:18 | 25.15557 | 38.53235 | 38899 ft | 569 kts | 126° |
| 2026-04-21 23:18 | 25.11666 | 38.60845 | 38891 ft | 570 kts | 126° |
| 2026-04-21 23:19 | 25.07771 | 38.68457 | 38889 ft | 570 kts | 126° |
| 2026-04-21 23:19 | 25.03870 | 38.76066 | 38902 ft | 569 kts | 126° |
| 2026-04-21 23:20 | 25.00001 | 38.83606 | 38902 ft | 568 kts | 126° |
| 2026-04-21 23:20 | 24.96111 | 38.91172 | 38900 ft | 567 kts | 126° |
| 2026-04-21 23:21 | 24.92199 | 38.98726 | 38908 ft | 566 kts | 127° |
| 2026-04-21 23:21 | 24.88284 | 39.06252 | 38916 ft | 565 kts | 127° |
| 2026-04-21 23:22 | 24.84393 | 39.13731 | 38919 ft | 566 kts | 126° |
| 2026-04-21 23:22 | 24.80470 | 39.21265 | 38911 ft | 567 kts | 126° |
| 2026-04-21 23:23 | 24.76544 | 39.28794 | 38924 ft | 567 kts | 126° |
| 2026-04-21 23:23 | 24.72610 | 39.36330 | 38926 ft | 568 kts | 126° |
| 2026-04-21 23:24 | 24.68663 | 39.43880 | 38919 ft | 569 kts | 126° |
| 2026-04-21 23:24 | 24.64711 | 39.51430 | 38939 ft | 569 kts | 126° |
| 2026-04-21 23:25 | 24.60776 | 39.58938 | 38924 ft | 570 kts | 126° |
| 2026-04-21 23:25 | 24.56934 | 39.66588 | 38933 ft | 575 kts | 119° |
| 2026-04-21 23:26 | 24.54367 | 39.74992 | 38941 ft | 583 kts | 105° |
| 2026-04-21 23:26 | 24.53254 | 39.83783 | 38941 ft | 585 kts | 96° |
| 2026-04-21 23:27 | 24.52520 | 39.92694 | 38935 ft | 586 kts | 96° |
| 2026-04-21 23:27 | 24.51731 | 40.01619 | 38936 ft | 586 kts | 97° |
| 2026-04-21 23:28 | 24.50876 | 40.10509 | 38929 ft | 585 kts | 97° |
| 2026-04-21 23:28 | 24.49998 | 40.19399 | 38935 ft | 584 kts | 97° |
| 2026-04-21 23:29 | 24.49123 | 40.28272 | 38926 ft | 584 kts | 97° |
| 2026-04-21 23:29 | 24.48256 | 40.37069 | 38936 ft | 583 kts | 97° |
| 2026-04-21 23:30 | 24.47379 | 40.45920 | 38936 ft | 582 kts | 97° |
| 2026-04-21 23:30 | 24.46498 | 40.54758 | 38936 ft | 582 kts | 97° |
| 2026-04-21 23:31 | 24.45612 | 40.63585 | 38936 ft | 582 kts | 97° |
| 2026-04-21 23:31 | 24.44720 | 40.72420 | 38948 ft | 582 kts | 97° |
| 2026-04-21 23:32 | 24.43823 | 40.81250 | 38942 ft | 582 kts | 97° |
| 2026-04-21 23:32 | 24.42925 | 40.90042 | 38937 ft | 583 kts | 97° |
| 2026-04-21 23:33 | 24.42018 | 40.98877 | 38943 ft | 583 kts | 97° |
| 2026-04-21 23:33 | 24.41106 | 41.07711 | 38944 ft | 583 kts | 97° |
| 2026-04-21 23:34 | 24.40180 | 41.16548 | 38937 ft | 583 kts | 97° |
| 2026-04-21 23:34 | 24.39243 | 41.25388 | 38951 ft | 582 kts | 97° |
| 2026-04-21 23:35 | 24.38310 | 41.34173 | 38953 ft | 582 kts | 97° |
| 2026-04-21 23:35 | 24.37368 | 41.42999 | 38954 ft | 582 kts | 97° |
| 2026-04-21 23:36 | 24.36420 | 41.51832 | 38953 ft | 582 kts | 97° |
| 2026-04-21 23:36 | 24.35477 | 41.60578 | 38946 ft | 581 kts | 97° |
| 2026-04-21 23:37 | 24.34522 | 41.69379 | 38955 ft | 581 kts | 97° |
| 2026-04-21 23:37 | 24.33561 | 41.78194 | 38935 ft | 581 kts | 98° |
| 2026-04-21 23:38 | 24.32077 | 41.86870 | 38951 ft | 577 kts | 109° |
| 2026-04-21 23:38 | 24.30185 | 41.93889 | 38946 ft | 577 kts | 110° |
| 2026-04-21 23:39 | 24.27498 | 42.03707 | 38941 ft | 577 kts | 109° |
| 2026-04-21 23:39 | 24.25245 | 42.12155 | 38945 ft | 578 kts | 109° |
| 2026-04-21 23:40 | 24.23388 | 42.19194 | 38945 ft | 578 kts | 109° |
| 2026-04-21 23:40 | 24.21149 | 42.27666 | 38942 ft | 578 kts | 109° |
| 2026-04-21 23:41 | 24.18898 | 42.36143 | 38937 ft | 578 kts | 109° |
| 2026-04-21 23:41 | 24.16642 | 42.44602 | 38931 ft | 578 kts | 109° |
| 2026-04-21 23:42 | 24.14395 | 42.53006 | 38940 ft | 578 kts | 109° |
| 2026-04-21 23:42 | 24.12137 | 42.61439 | 38930 ft | 578 kts | 109° |
| 2026-04-21 23:43 | 24.09871 | 42.69877 | 38937 ft | 577 kts | 109° |
| 2026-04-21 23:43 | 24.07603 | 42.78307 | 38939 ft | 577 kts | 109° |
| 2026-04-21 23:44 | 24.05332 | 42.86731 | 38937 ft | 576 kts | 109° |
| 2026-04-21 23:44 | 24.03071 | 42.95096 | 38937 ft | 576 kts | 109° |
| 2026-04-21 23:45 | 23.99660 | 43.07698 | 38935 ft | 576 kts | 109° |
| 2026-04-21 23:46 | 23.97382 | 43.16092 | 38937 ft | 575 kts | 109° |
| 2026-04-21 23:46 | 23.95101 | 43.24478 | 38931 ft | 575 kts | 109° |
| 2026-04-21 23:47 | 23.92818 | 43.32850 | 38942 ft | 574 kts | 109° |
| 2026-04-21 23:47 | 23.90533 | 43.41213 | 38938 ft | 575 kts | 109° |
| 2026-04-21 23:48 | 23.88239 | 43.49586 | 38938 ft | 574 kts | 109° |
| 2026-04-21 23:48 | 23.85955 | 43.57905 | 38933 ft | 574 kts | 109° |
| 2026-04-21 23:49 | 23.83653 | 43.66270 | 38922 ft | 574 kts | 109° |
| 2026-04-21 23:49 | 23.81346 | 43.74634 | 38939 ft | 574 kts | 109° |
| 2026-04-21 23:50 | 23.79055 | 43.82926 | 38912 ft | 574 kts | 109° |
| 2026-04-21 23:50 | 23.77173 | 43.91408 | 38919 ft | 575 kts | 99° |
| 2026-04-21 23:51 | 23.76452 | 44.00101 | 38922 ft | 575 kts | 93° |
| 2026-04-21 23:51 | 23.75895 | 44.08813 | 38900 ft | 575 kts | 94° |
| 2026-04-21 23:52 | 23.75282 | 44.17468 | 38924 ft | 575 kts | 94° |
| 2026-04-21 23:52 | 23.74619 | 44.26184 | 38915 ft | 576 kts | 94° |
| 2026-04-21 23:53 | 23.73946 | 44.34899 | 38907 ft | 576 kts | 94° |
| 2026-04-21 23:53 | 23.73274 | 44.43622 | 38896 ft | 576 kts | 94° |
| 2026-04-21 23:54 | 23.72600 | 44.52342 | 38907 ft | 576 kts | 94° |
| 2026-04-21 23:54 | 23.71922 | 44.61059 | 38909 ft | 575 kts | 94° |
| 2026-04-21 23:55 | 23.71244 | 44.69697 | 38907 ft | 574 kts | 94° |
| 2026-04-21 23:55 | 23.70557 | 44.78384 | 38902 ft | 574 kts | 94° |
| 2026-04-21 23:56 | 23.69868 | 44.87048 | 38900 ft | 573 kts | 94° |
| 2026-04-21 23:56 | 23.69171 | 44.95714 | 38918 ft | 573 kts | 95° |
| 2026-04-21 23:57 | 23.68468 | 45.04378 | 38873 ft | 573 kts | 94° |
| 2026-04-21 23:57 | 23.67761 | 45.13040 | 38896 ft | 573 kts | 94° |
| 2026-04-21 23:58 | 23.67052 | 45.21686 | 38909 ft | 573 kts | 94° |
| 2026-04-21 23:58 | 23.66342 | 45.30290 | 38892 ft | 573 kts | 94° |
| 2026-04-21 23:59 | 23.65626 | 45.38942 | 38886 ft | 573 kts | 95° |
| 2026-04-21 23:59 | 23.64904 | 45.47608 | 38879 ft | 573 kts | 95° |
| 2026-04-22 00:00 | 23.64176 | 45.56276 | 38847 ft | 574 kts | 94° |
| 2026-04-22 00:00 | 23.63444 | 45.64943 | 38872 ft | 573 kts | 94° |
| 2026-04-22 00:01 | 23.62707 | 45.73615 | 38867 ft | 574 kts | 95° |
| 2026-04-22 00:01 | 23.61967 | 45.82284 | 38852 ft | 574 kts | 95° |
| 2026-04-22 00:02 | 23.61222 | 45.90950 | 38866 ft | 574 kts | 95° |
| 2026-04-22 00:02 | 23.60477 | 45.99557 | 38867 ft | 574 kts | 95° |
| 2026-04-22 00:03 | 23.59721 | 46.08234 | 38859 ft | 574 kts | 95° |
| 2026-04-22 00:03 | 23.58961 | 46.16912 | 38882 ft | 575 kts | 95° |
| 2026-04-22 00:04 | 23.58194 | 46.25599 | 38890 ft | 575 kts | 95° |
| 2026-04-22 00:04 | 23.57422 | 46.34288 | 38890 ft | 576 kts | 95° |
| 2026-04-22 00:05 | 23.56651 | 46.42926 | 38895 ft | 575 kts | 95° |
| 2026-04-22 00:05 | 23.55872 | 46.51607 | 38903 ft | 574 kts | 95° |
| 2026-04-22 00:06 | 23.55082 | 46.60272 | 38882 ft | 573 kts | 95° |
| 2026-04-22 00:06 | 23.54282 | 46.68913 | 38909 ft | 572 kts | 95° |
| 2026-04-22 00:07 | 23.53483 | 46.77495 | 38891 ft | 571 kts | 95° |
| 2026-04-22 00:07 | 23.52680 | 46.86099 | 38894 ft | 571 kts | 95° |
| 2026-04-22 00:08 | 23.51872 | 46.94705 | 38896 ft | 570 kts | 95° |
| 2026-04-22 00:08 | 23.51065 | 47.03251 | 38895 ft | 571 kts | 95° |
| 2026-04-22 00:09 | 23.50246 | 47.11871 | 38895 ft | 571 kts | 95° |
| 2026-04-22 00:09 | 23.49422 | 47.20494 | 38890 ft | 572 kts | 95° |
| 2026-04-22 00:10 | 23.48593 | 47.29119 | 38881 ft | 572 kts | 95° |
| 2026-04-22 00:10 | 23.47758 | 47.37753 | 38872 ft | 572 kts | 95° |
| 2026-04-22 00:11 | 23.46921 | 47.46369 | 38871 ft | 572 kts | 95° |
| 2026-04-22 00:11 | 23.46083 | 47.54948 | 38868 ft | 572 kts | 95° |
| 2026-04-22 00:12 | 23.45241 | 47.63582 | 38862 ft | 572 kts | 95° |
| 2026-04-22 00:12 | 23.44399 | 47.72206 | 38845 ft | 572 kts | 95° |
| 2026-04-22 00:13 | 23.43551 | 47.80827 | 38853 ft | 572 kts | 95° |
| 2026-04-22 00:13 | 23.42698 | 47.89434 | 38849 ft | 571 kts | 95° |
| 2026-04-22 00:14 | 23.41846 | 47.97987 | 38839 ft | 571 kts | 95° |
| 2026-04-22 00:14 | 23.40985 | 48.06598 | 38848 ft | 571 kts | 95° |
| 2026-04-22 00:15 | 23.40120 | 48.15190 | 38828 ft | 571 kts | 95° |
| 2026-04-22 00:15 | 23.39250 | 48.23790 | 38811 ft | 571 kts | 95° |
| 2026-04-22 00:16 | 23.37838 | 48.32214 | 38822 ft | 570 kts | 108° |
| 2026-04-22 00:16 | 23.34800 | 48.40146 | 38829 ft | 566 kts | 122° |
| 2026-04-22 00:17 | 23.30595 | 48.47346 | 38834 ft | 563 kts | 127° |
| 2026-04-22 00:17 | 23.26284 | 48.54482 | 38822 ft | 564 kts | 127° |
| 2026-04-22 00:18 | 23.22016 | 48.61658 | 38804 ft | 565 kts | 126° |
| 2026-04-22 00:18 | 23.17776 | 48.68869 | 38817 ft | 565 kts | 126° |
| 2026-04-22 00:19 | 23.13542 | 48.76079 | 38809 ft | 566 kts | 126° |
| 2026-04-22 00:19 | 23.09325 | 48.83239 | 38788 ft | 566 kts | 126° |
| 2026-04-22 00:20 | 23.05071 | 48.90444 | 38796 ft | 565 kts | 126° |
| 2026-04-22 00:20 | 23.00817 | 48.97635 | 38803 ft | 565 kts | 126° |
| 2026-04-22 00:21 | 22.96564 | 49.04817 | 38799 ft | 565 kts | 126° |
| 2026-04-22 00:21 | 22.92340 | 49.11940 | 38790 ft | 565 kts | 126° |
| 2026-04-22 00:22 | 22.88086 | 49.19104 | 38790 ft | 564 kts | 126° |
| 2026-04-22 00:22 | 22.83827 | 49.26267 | 38795 ft | 564 kts | 126° |
| 2026-04-22 00:23 | 22.79573 | 49.33412 | 38798 ft | 564 kts | 126° |
| 2026-04-22 00:23 | 22.75307 | 49.40563 | 38781 ft | 564 kts | 126° |
| 2026-04-22 00:24 | 22.71065 | 49.47668 | 38786 ft | 564 kts | 126° |
| 2026-04-22 00:24 | 22.66790 | 49.54820 | 38795 ft | 564 kts | 126° |
| 2026-04-22 00:25 | 22.62510 | 49.61968 | 38789 ft | 565 kts | 126° |
| 2026-04-22 00:25 | 22.58256 | 49.69063 | 38777 ft | 564 kts | 126° |
| 2026-04-22 00:26 | 22.53973 | 49.76198 | 38790 ft | 564 kts | 126° |
| 2026-04-22 00:26 | 22.49696 | 49.83314 | 38787 ft | 564 kts | 126° |
| 2026-04-22 00:27 | 22.45409 | 49.90435 | 38779 ft | 564 kts | 126° |
| 2026-04-22 00:27 | 22.41127 | 49.97540 | 38786 ft | 564 kts | 126° |
| 2026-04-22 00:28 | 22.36868 | 50.04596 | 38784 ft | 564 kts | 126° |
| 2026-04-22 00:28 | 22.32571 | 50.11706 | 38776 ft | 564 kts | 126° |
| 2026-04-22 00:29 | 22.28269 | 50.18814 | 38772 ft | 564 kts | 126° |
| 2026-04-22 00:29 | 22.24701 | 50.24702 | 38771 ft | 564 kts | 126° |
| 2026-04-22 00:30 | 22.19703 | 50.32941 | 38777 ft | 564 kts | 126° |
| 2026-04-22 00:30 | 22.15403 | 50.40020 | 38779 ft | 563 kts | 126° |
| 2026-04-22 00:31 | 22.11828 | 50.45896 | 38776 ft | 563 kts | 126° |
| 2026-04-22 00:31 | 22.07524 | 50.52966 | 38768 ft | 563 kts | 126° |
| 2026-04-22 00:32 | 22.03259 | 50.60047 | 38765 ft | 563 kts | 121° |
| 2026-04-22 00:32 | 22.00339 | 50.67876 | 38778 ft | 563 kts | 103° |
| 2026-04-22 00:33 | 21.99320 | 50.76143 | 38769 ft | 557 kts | 89° |
| 2026-04-22 00:33 | 21.99066 | 50.84502 | 38768 ft | 558 kts | 88° |
| 2026-04-22 00:34 | 21.98789 | 50.92881 | 38774 ft | 559 kts | 89° |
| 2026-04-22 00:34 | 21.98439 | 51.01269 | 38761 ft | 560 kts | 89° |
| 2026-04-22 00:35 | 21.98054 | 51.09653 | 38761 ft | 560 kts | 89° |
| 2026-04-22 00:35 | 21.97665 | 51.17997 | 38759 ft | 560 kts | 89° |
| 2026-04-22 00:36 | 21.97276 | 51.26386 | 38757 ft | 560 kts | 89° |
| 2026-04-22 00:36 | 21.96886 | 51.34782 | 38756 ft | 560 kts | 89° |
| 2026-04-22 00:37 | 21.96492 | 51.43166 | 38755 ft | 559 kts | 90° |
| 2026-04-22 00:37 | 21.96097 | 51.51475 | 38752 ft | 558 kts | 90° |
| 2026-04-22 00:38 | 21.95696 | 51.59828 | 38750 ft | 558 kts | 90° |
| 2026-04-22 00:38 | 21.95291 | 51.68162 | 38749 ft | 557 kts | 90° |
| 2026-04-22 00:39 | 21.94881 | 51.76499 | 38735 ft | 556 kts | 90° |
| 2026-04-22 00:39 | 21.94468 | 51.84833 | 38747 ft | 556 kts | 90° |
| 2026-04-22 00:40 | 21.94054 | 51.93105 | 38737 ft | 556 kts | 90° |
| 2026-04-22 00:40 | 21.93633 | 52.01412 | 38737 ft | 555 kts | 90° |
| 2026-04-22 00:41 | 21.93209 | 52.09723 | 38746 ft | 555 kts | 90° |
| 2026-04-22 00:41 | 21.92780 | 52.18034 | 38736 ft | 556 kts | 90° |
| 2026-04-22 00:42 | 21.92346 | 52.26367 | 38734 ft | 556 kts | 90° |
| 2026-04-22 00:42 | 21.91910 | 52.34641 | 38736 ft | 556 kts | 90° |
| 2026-04-22 00:43 | 21.91468 | 52.42969 | 38728 ft | 556 kts | 90° |
| 2026-04-22 00:43 | 21.91021 | 52.51296 | 38733 ft | 556 kts | 90° |
| 2026-04-22 00:44 | 21.90572 | 52.59605 | 38726 ft | 556 kts | 90° |
| 2026-04-22 00:44 | 21.90117 | 52.67921 | 38734 ft | 556 kts | 90° |
| 2026-04-22 00:45 | 21.89661 | 52.76192 | 38734 ft | 556 kts | 90° |
| 2026-04-22 00:45 | 21.89198 | 52.84513 | 38735 ft | 556 kts | 90° |
| 2026-04-22 00:46 | 21.88730 | 52.92834 | 38731 ft | 556 kts | 90° |
| 2026-04-22 00:46 | 21.88263 | 53.01086 | 38749 ft | 556 kts | 90° |
| 2026-04-22 00:47 | 21.87787 | 53.09408 | 38730 ft | 556 kts | 90° |
| 2026-04-22 00:47 | 21.87306 | 53.17742 | 38743 ft | 556 kts | 90° |
| 2026-04-22 00:48 | 21.86822 | 53.26068 | 38743 ft | 557 kts | 90° |
| 2026-04-22 00:48 | 21.86333 | 53.34388 | 38741 ft | 557 kts | 91° |
| 2026-04-22 00:49 | 21.85844 | 53.42656 | 38741 ft | 556 kts | 90° |
| 2026-04-22 00:49 | 21.85347 | 53.50970 | 38742 ft | 556 kts | 90° |
| 2026-04-22 00:50 | 21.84846 | 53.59293 | 38743 ft | 556 kts | 91° |
| 2026-04-22 00:50 | 21.84341 | 53.67614 | 38746 ft | 556 kts | 91° |
| 2026-04-22 00:51 | 21.83832 | 53.75934 | 38752 ft | 556 kts | 91° |
| 2026-04-22 00:51 | 21.83321 | 53.84201 | 38745 ft | 556 kts | 91° |
| 2026-04-22 00:52 | 21.82805 | 53.92496 | 38751 ft | 556 kts | 91° |
| 2026-04-22 00:52 | 21.82285 | 54.00798 | 38757 ft | 556 kts | 91° |
| 2026-04-22 00:53 | 21.81760 | 54.09098 | 38754 ft | 556 kts | 91° |
| 2026-04-22 00:53 | 21.81235 | 54.17344 | 38749 ft | 555 kts | 91° |
| 2026-04-22 00:54 | 21.80700 | 54.25644 | 38761 ft | 555 kts | 91° |
| 2026-04-22 00:54 | 21.80164 | 54.33938 | 38756 ft | 555 kts | 91° |
| 2026-04-22 00:55 | 21.79624 | 54.42224 | 38744 ft | 555 kts | 91° |
| 2026-04-22 00:55 | 21.78809 | 54.54587 | 38768 ft | 554 kts | 91° |
| 2026-04-22 00:56 | 21.78259 | 54.62867 | 38756 ft | 554 kts | 91° |
| 2026-04-22 00:56 | 21.77704 | 54.71149 | 38767 ft | 554 kts | 91° |
| 2026-04-22 00:57 | 21.77145 | 54.79423 | 38783 ft | 553 kts | 91° |
| 2026-04-22 00:57 | 21.76587 | 54.87635 | 38768 ft | 553 kts | 91° |
| 2026-04-22 00:58 | 21.76021 | 54.95892 | 38766 ft | 553 kts | 91° |
| 2026-04-22 00:58 | 21.75451 | 55.04146 | 38774 ft | 552 kts | 91° |
| 2026-04-22 00:59 | 21.74879 | 55.12380 | 38779 ft | 552 kts | 91° |
| 2026-04-22 00:59 | 21.74303 | 55.20611 | 38784 ft | 551 kts | 91° |
| 2026-04-22 01:00 | 21.73729 | 55.28765 | 38800 ft | 550 kts | 91° |
| 2026-04-22 01:00 | 21.73145 | 55.36972 | 38788 ft | 550 kts | 91° |
| 2026-04-22 01:01 | 21.72559 | 55.45171 | 38782 ft | 549 kts | 91° |
| 2026-04-22 01:01 | 21.71971 | 55.53358 | 38784 ft | 549 kts | 91° |
| 2026-04-22 01:02 | 21.71409 | 55.61539 | 38794 ft | 547 kts | 90° |
| 2026-04-22 01:02 | 21.70952 | 55.69703 | 38800 ft | 546 kts | 90° |
| 2026-04-22 01:03 | 21.70492 | 55.77806 | 38803 ft | 546 kts | 90° |
| 2026-04-22 01:03 | 21.70008 | 55.85951 | 38802 ft | 545 kts | 90° |
| 2026-04-22 01:04 | 21.69527 | 55.94087 | 38803 ft | 545 kts | 90° |
| 2026-04-22 01:04 | 21.69044 | 56.02236 | 38801 ft | 545 kts | 90° |
| 2026-04-22 01:05 | 21.68559 | 56.10370 | 38814 ft | 545 kts | 90° |
| 2026-04-22 01:05 | 21.68068 | 56.18501 | 38814 ft | 545 kts | 90° |
| 2026-04-22 01:06 | 21.67574 | 56.26632 | 38816 ft | 545 kts | 90° |
| 2026-04-22 01:06 | 21.67078 | 56.34710 | 38833 ft | 545 kts | 90° |
| 2026-04-22 01:07 | 21.66574 | 56.42859 | 38827 ft | 545 kts | 90° |
| 2026-04-22 01:07 | 21.66067 | 56.50995 | 38826 ft | 545 kts | 90° |
| 2026-04-22 01:08 | 21.65557 | 56.59120 | 38841 ft | 544 kts | 90° |
| 2026-04-22 01:08 | 21.65044 | 56.67237 | 38827 ft | 543 kts | 90° |
| 2026-04-22 01:09 | 21.64527 | 56.75336 | 38843 ft | 543 kts | 91° |
| 2026-04-22 01:09 | 21.64010 | 56.83376 | 38842 ft | 542 kts | 91° |
| 2026-04-22 01:10 | 21.63487 | 56.91455 | 38839 ft | 541 kts | 91° |
| 2026-04-22 01:10 | 21.62961 | 56.99526 | 38845 ft | 540 kts | 91° |
| 2026-04-22 01:11 | 21.62436 | 57.07528 | 38854 ft | 539 kts | 91° |
| 2026-04-22 01:11 | 21.61902 | 57.15594 | 38853 ft | 538 kts | 91° |
| 2026-04-22 01:12 | 21.61369 | 57.23578 | 38851 ft | 538 kts | 91° |
| 2026-04-22 01:12 | 21.60829 | 57.31611 | 38857 ft | 537 kts | 91° |
| 2026-04-22 01:13 | 21.60289 | 57.39590 | 38864 ft | 537 kts | 91° |
| 2026-04-22 01:13 | 21.59744 | 57.47591 | 38870 ft | 536 kts | 91° |
| 2026-04-22 01:14 | 21.59196 | 57.55588 | 38869 ft | 536 kts | 91° |
| 2026-04-22 01:14 | 21.58636 | 57.63587 | 38867 ft | 536 kts | 93° |
| 2026-04-22 01:15 | 21.57306 | 57.71484 | 38873 ft | 539 kts | 105° |
| 2026-04-22 01:15 | 21.55089 | 57.79186 | 38869 ft | 538 kts | 106° |
| 2026-04-22 01:16 | 21.52869 | 57.86817 | 38869 ft | 538 kts | 105° |
| 2026-04-22 01:16 | 21.50683 | 57.94500 | 38880 ft | 538 kts | 105° |
| 2026-04-22 01:17 | 21.48519 | 58.02178 | 38870 ft | 538 kts | 105° |
| 2026-04-22 01:17 | 21.46348 | 58.09876 | 38868 ft | 537 kts | 105° |
| 2026-04-22 01:18 | 21.44185 | 58.17515 | 38865 ft | 537 kts | 105° |
| 2026-04-22 01:18 | 21.42006 | 58.25189 | 38867 ft | 537 kts | 105° |
| 2026-04-22 01:19 | 21.39823 | 58.32861 | 38871 ft | 537 kts | 105° |
| 2026-04-22 01:19 | 21.38009 | 58.39227 | 38860 ft | 536 kts | 105° |
| 2026-04-22 01:20 | 21.35824 | 58.46884 | 38862 ft | 536 kts | 105° |
| 2026-04-22 01:20 | 21.33639 | 58.54526 | 38875 ft | 535 kts | 105° |
| 2026-04-22 01:21 | 21.31453 | 58.62156 | 38864 ft | 534 kts | 105° |
| 2026-04-22 01:21 | 21.29279 | 58.69733 | 38870 ft | 534 kts | 105° |
| 2026-04-22 01:22 | 21.27091 | 58.77343 | 38863 ft | 533 kts | 105° |
| 2026-04-22 01:22 | 21.24903 | 58.84943 | 38861 ft | 533 kts | 105° |
| 2026-04-22 01:23 | 21.22714 | 58.92535 | 38858 ft | 533 kts | 105° |
| 2026-04-22 01:23 | 21.20523 | 59.00124 | 38851 ft | 532 kts | 105° |
| 2026-04-22 01:24 | 21.18328 | 59.07714 | 38862 ft | 532 kts | 105° |
| 2026-04-22 01:24 | 21.16146 | 59.15245 | 38855 ft | 532 kts | 105° |
| 2026-04-22 01:25 | 21.13950 | 59.22811 | 38856 ft | 532 kts | 105° |
| 2026-04-22 01:25 | 21.11748 | 59.30384 | 38860 ft | 531 kts | 105° |
| 2026-04-22 01:26 | 21.09548 | 59.37935 | 38862 ft | 531 kts | 105° |
| 2026-04-22 01:26 | 21.07348 | 59.45474 | 38848 ft | 530 kts | 105° |
| 2026-04-22 01:27 | 21.05149 | 59.52998 | 38840 ft | 529 kts | 105° |
| 2026-04-22 01:27 | 21.02964 | 59.60462 | 38863 ft | 527 kts | 105° |
| 2026-04-22 01:28 | 21.00058 | 59.67617 | 38849 ft | 527 kts | 126° |
| 2026-04-22 01:28 | 20.97683 | 59.70599 | 38855 ft | 526 kts | 137° |
| 2026-04-22 01:28 | 20.94837 | 59.73035 | 38860 ft | 522 kts | 150° |
| 2026-04-22 01:29 | 20.88558 | 59.76935 | 38841 ft | 522 kts | 152° |
| 2026-04-22 01:29 | 20.82251 | 59.80842 | 38864 ft | 524 kts | 151° |
| 2026-04-22 01:30 | 20.75951 | 59.84838 | 38867 ft | 527 kts | 150° |
| 2026-04-22 01:30 | 20.69648 | 59.88875 | 38874 ft | 529 kts | 150° |
| 2026-04-22 01:31 | 20.63368 | 59.92896 | 38859 ft | 530 kts | 150° |
| 2026-04-22 01:31 | 20.57048 | 59.96931 | 38868 ft | 529 kts | 150° |
| 2026-04-22 01:32 | 20.50719 | 60.00966 | 38863 ft | 529 kts | 150° |
| 2026-04-22 01:32 | 20.44396 | 60.04992 | 38852 ft | 528 kts | 150° |
| 2026-04-22 01:33 | 20.38080 | 60.09011 | 38868 ft | 528 kts | 150° |
| 2026-04-22 01:33 | 20.31804 | 60.13000 | 38868 ft | 527 kts | 150° |
| 2026-04-22 01:34 | 20.25501 | 60.17003 | 38863 ft | 527 kts | 150° |
| 2026-04-22 01:34 | 20.19196 | 60.21004 | 38869 ft | 527 kts | 150° |
| 2026-04-22 01:35 | 20.12930 | 60.24977 | 38869 ft | 527 kts | 150° |
| 2026-04-22 01:35 | 20.06641 | 60.28994 | 38861 ft | 527 kts | 148° |
| 2026-04-22 01:36 | 20.00849 | 60.33770 | 38871 ft | 527 kts | 138° |
| 2026-04-22 01:36 | 19.95413 | 60.39029 | 38877 ft | 528 kts | 138° |
| 2026-04-22 01:37 | 19.89966 | 60.44284 | 38873 ft | 529 kts | 138° |
| 2026-04-22 01:37 | 19.84516 | 60.49482 | 38883 ft | 529 kts | 138° |
| 2026-04-22 01:38 | 19.79013 | 60.54700 | 38869 ft | 530 kts | 138° |
| 2026-04-22 01:38 | 19.73505 | 60.59917 | 38880 ft | 529 kts | 138° |
| 2026-04-22 01:39 | 19.68046 | 60.65084 | 38881 ft | 529 kts | 138° |
| 2026-04-22 01:39 | 19.62542 | 60.70292 | 38882 ft | 529 kts | 138° |
| 2026-04-22 01:40 | 19.57045 | 60.75488 | 38888 ft | 529 kts | 138° |
| 2026-04-22 01:40 | 19.51539 | 60.80688 | 38881 ft | 529 kts | 138° |
| 2026-04-22 01:41 | 19.46049 | 60.85868 | 38884 ft | 528 kts | 139° |
| 2026-04-22 01:41 | 19.40577 | 60.91025 | 38884 ft | 528 kts | 139° |
| 2026-04-22 01:42 | 19.35088 | 60.96194 | 38888 ft | 527 kts | 139° |
| 2026-04-22 01:42 | 19.29605 | 61.01353 | 38883 ft | 527 kts | 139° |
| 2026-04-22 01:43 | 19.24128 | 61.06500 | 38898 ft | 527 kts | 138° |
| 2026-04-22 01:43 | 19.18634 | 61.11660 | 38889 ft | 527 kts | 138° |
| 2026-04-22 01:44 | 19.13167 | 61.16790 | 38891 ft | 528 kts | 138° |
| 2026-04-22 01:44 | 19.07662 | 61.21949 | 38894 ft | 528 kts | 138° |
| 2026-04-22 01:45 | 19.02153 | 61.27107 | 38871 ft | 529 kts | 138° |
| 2026-04-22 01:45 | 18.96678 | 61.32230 | 38897 ft | 529 kts | 138° |
| 2026-04-22 01:46 | 18.91158 | 61.37390 | 38898 ft | 530 kts | 138° |
| 2026-04-22 01:46 | 18.85632 | 61.42551 | 38901 ft | 530 kts | 138° |
| 2026-04-22 01:47 | 18.80089 | 61.47722 | 38882 ft | 531 kts | 138° |
| 2026-04-22 01:47 | 18.74586 | 61.52852 | 38890 ft | 531 kts | 138° |
| 2026-04-22 01:48 | 18.69034 | 61.58022 | 38895 ft | 531 kts | 138° |
| 2026-04-22 01:48 | 18.63496 | 61.63176 | 38897 ft | 531 kts | 138° |
| 2026-04-22 01:49 | 18.57952 | 61.68330 | 38899 ft | 531 kts | 138° |
| 2026-04-22 01:49 | 18.52438 | 61.73451 | 38901 ft | 531 kts | 138° |
| 2026-04-22 01:50 | 18.46884 | 61.78604 | 38899 ft | 531 kts | 138° |
| 2026-04-22 01:50 | 18.41335 | 61.83749 | 38906 ft | 531 kts | 138° |
| 2026-04-22 01:51 | 18.35784 | 61.88891 | 38908 ft | 531 kts | 138° |
| 2026-04-22 01:51 | 18.30226 | 61.94035 | 38919 ft | 531 kts | 138° |
| 2026-04-22 01:52 | 18.24708 | 61.99138 | 38908 ft | 532 kts | 138° |
| 2026-04-22 01:52 | 18.19146 | 62.04275 | 38906 ft | 532 kts | 138° |
| 2026-04-22 01:53 | 18.13581 | 62.09412 | 38911 ft | 531 kts | 138° |
| 2026-04-22 01:53 | 18.08016 | 62.14544 | 38909 ft | 532 kts | 138° |
| 2026-04-22 01:54 | 18.02494 | 62.19632 | 38909 ft | 532 kts | 138° |
| 2026-04-22 01:54 | 17.96933 | 62.24751 | 38910 ft | 532 kts | 138° |
| 2026-04-22 01:55 | 17.91358 | 62.29880 | 38917 ft | 532 kts | 138° |
| 2026-04-22 01:55 | 17.85789 | 62.34997 | 38918 ft | 532 kts | 138° |
| 2026-04-22 01:56 | 17.80211 | 62.40119 | 38918 ft | 532 kts | 138° |
| 2026-04-22 01:56 | 17.74640 | 62.45230 | 38918 ft | 532 kts | 138° |
| 2026-04-22 01:57 | 17.69099 | 62.50309 | 38905 ft | 532 kts | 138° |
| 2026-04-22 01:57 | 17.63490 | 62.55446 | 38918 ft | 532 kts | 138° |
| 2026-04-22 01:58 | 17.57950 | 62.60515 | 38917 ft | 532 kts | 138° |
| 2026-04-22 01:58 | 17.52376 | 62.65612 | 38920 ft | 531 kts | 138° |
| 2026-04-22 01:59 | 17.46806 | 62.70700 | 38925 ft | 532 kts | 138° |
| 2026-04-22 01:59 | 17.44012 | 62.73252 | 39068 ft | 533 kts | 138° |
| 2026-04-22 01:59 | 17.41215 | 62.75803 | 39334 ft | 531 kts | 138° |
| 2026-04-22 02:00 | 17.38437 | 62.78337 | 39641 ft | 528 kts | 138° |
| 2026-04-22 02:00 | 17.35669 | 62.80861 | 39915 ft | 527 kts | 138° |
| 2026-04-22 02:00 | 17.32906 | 62.83380 | 40182 ft | 525 kts | 138° |
| 2026-04-22 02:00 | 17.30157 | 62.85884 | 40411 ft | 524 kts | 138° |
| 2026-04-22 02:01 | 17.27399 | 62.88395 | 40639 ft | 524 kts | 138° |
| 2026-04-22 02:01 | 17.24653 | 62.90896 | 40822 ft | 523 kts | 138° |
| 2026-04-22 02:01 | 17.19141 | 62.95911 | 40909 ft | 526 kts | 138° |
| 2026-04-22 02:02 | 17.13626 | 63.00925 | 40909 ft | 524 kts | 138° |
| 2026-04-22 02:02 | 17.08178 | 63.05874 | 40919 ft | 521 kts | 138° |
| 2026-04-22 02:03 | 17.02714 | 63.10834 | 40922 ft | 519 kts | 138° |
| 2026-04-22 02:03 | 16.97227 | 63.15732 | 40928 ft | 518 kts | 140° |
| 2026-04-22 02:04 | 16.88879 | 63.22924 | 40918 ft | 518 kts | 140° |
| 2026-04-22 02:05 | 16.83354 | 63.27684 | 40921 ft | 518 kts | 140° |
| 2026-04-22 02:05 | 16.77793 | 63.32494 | 40931 ft | 519 kts | 140° |
| 2026-04-22 02:06 | 16.72226 | 63.37313 | 40921 ft | 520 kts | 140° |
| 2026-04-22 02:06 | 16.66650 | 63.42137 | 40920 ft | 521 kts | 140° |
| 2026-04-22 02:07 | 16.61063 | 63.46963 | 40922 ft | 521 kts | 140° |
| 2026-04-22 02:07 | 16.55506 | 63.51761 | 40925 ft | 521 kts | 140° |
| 2026-04-22 02:08 | 16.49921 | 63.56578 | 40915 ft | 521 kts | 140° |
| 2026-04-22 02:08 | 16.44368 | 63.61363 | 40918 ft | 520 kts | 140° |
| 2026-04-22 02:09 | 16.39719 | 63.65367 | 40923 ft | 520 kts | 140° |
| 2026-04-22 02:09 | 16.34138 | 63.70171 | 40923 ft | 520 kts | 140° |
| 2026-04-22 02:10 | 16.28560 | 63.74968 | 40928 ft | 519 kts | 140° |
| 2026-04-22 02:10 | 16.22987 | 63.79757 | 40930 ft | 519 kts | 140° |
| 2026-04-22 02:11 | 16.17415 | 63.84542 | 40922 ft | 518 kts | 140° |
| 2026-04-22 02:11 | 16.11854 | 63.89314 | 40920 ft | 517 kts | 140° |
| 2026-04-22 02:12 | 16.06302 | 63.94075 | 40918 ft | 517 kts | 140° |
| 2026-04-22 02:12 | 16.00792 | 63.98795 | 40915 ft | 517 kts | 140° |
| 2026-04-22 02:13 | 15.95235 | 64.03553 | 40925 ft | 517 kts | 140° |
| 2026-04-22 02:13 | 15.89684 | 64.08301 | 40935 ft | 517 kts | 140° |
| 2026-04-22 02:14 | 15.84121 | 64.13057 | 40917 ft | 517 kts | 140° |
| 2026-04-22 02:14 | 15.78559 | 64.17808 | 40919 ft | 517 kts | 140° |
| 2026-04-22 02:15 | 15.73030 | 64.22528 | 40910 ft | 517 kts | 140° |
| 2026-04-22 02:15 | 15.67470 | 64.27270 | 40917 ft | 517 kts | 140° |
| 2026-04-22 02:16 | 15.61911 | 64.32009 | 40922 ft | 517 kts | 140° |
| 2026-04-22 02:16 | 15.56345 | 64.36750 | 40930 ft | 518 kts | 141° |
| 2026-04-22 02:17 | 15.50780 | 64.41487 | 40916 ft | 518 kts | 141° |
| 2026-04-22 02:17 | 15.45231 | 64.46207 | 40908 ft | 518 kts | 141° |
| 2026-04-22 02:18 | 15.39657 | 64.50944 | 40913 ft | 518 kts | 141° |
| 2026-04-22 02:18 | 15.34081 | 64.55679 | 40915 ft | 518 kts | 141° |
| 2026-04-22 02:19 | 15.28506 | 64.60411 | 40916 ft | 518 kts | 141° |
| 2026-04-22 02:19 | 15.22954 | 64.65120 | 40914 ft | 518 kts | 141° |
| 2026-04-22 02:20 | 15.17370 | 64.69852 | 40906 ft | 518 kts | 141° |
| 2026-04-22 02:20 | 15.11791 | 64.74578 | 40913 ft | 518 kts | 141° |
| 2026-04-22 02:21 | 15.06203 | 64.79307 | 40917 ft | 519 kts | 141° |
| 2026-04-22 02:21 | 15.00605 | 64.84041 | 40915 ft | 519 kts | 141° |
| 2026-04-22 02:22 | 14.95048 | 64.88738 | 40916 ft | 519 kts | 141° |
| 2026-04-22 02:22 | 14.89444 | 64.93471 | 40915 ft | 520 kts | 141° |
| 2026-04-22 02:23 | 14.83842 | 64.98199 | 40926 ft | 520 kts | 141° |
| 2026-04-22 02:23 | 14.78257 | 65.02910 | 40915 ft | 520 kts | 141° |
| 2026-04-22 02:24 | 14.72642 | 65.07643 | 40913 ft | 520 kts | 141° |
| 2026-04-22 02:24 | 14.67028 | 65.12372 | 40912 ft | 520 kts | 141° |
| 2026-04-22 02:25 | 14.61414 | 65.17099 | 40914 ft | 520 kts | 141° |
| 2026-04-22 02:25 | 14.55806 | 65.21815 | 40905 ft | 520 kts | 141° |
| 2026-04-22 02:26 | 14.50230 | 65.26498 | 40910 ft | 520 kts | 141° |
| 2026-04-22 02:26 | 14.44613 | 65.31214 | 40920 ft | 519 kts | 141° |
| 2026-04-22 02:27 | 14.38999 | 65.35925 | 40908 ft | 519 kts | 141° |
| 2026-04-22 02:27 | 14.33424 | 65.40603 | 40910 ft | 519 kts | 141° |
| 2026-04-22 02:28 | 14.27820 | 65.45300 | 40891 ft | 519 kts | 142° |
| 2026-04-22 02:28 | 14.22223 | 65.49989 | 40904 ft | 518 kts | 142° |
| 2026-04-22 02:29 | 14.16620 | 65.54679 | 40910 ft | 518 kts | 142° |
| 2026-04-22 02:29 | 14.11024 | 65.59360 | 40909 ft | 518 kts | 142° |
| 2026-04-22 02:30 | 14.05427 | 65.64040 | 40915 ft | 518 kts | 142° |
| 2026-04-22 02:30 | 13.99831 | 65.68715 | 40905 ft | 518 kts | 142° |
| 2026-04-22 02:31 | 13.94277 | 65.73353 | 40904 ft | 517 kts | 142° |
| 2026-04-22 02:31 | 13.88688 | 65.78016 | 40903 ft | 517 kts | 142° |
| 2026-04-22 02:32 | 13.83100 | 65.82676 | 40904 ft | 516 kts | 142° |
| 2026-04-22 02:32 | 13.77514 | 65.87331 | 40904 ft | 516 kts | 142° |
| 2026-04-22 02:33 | 13.71928 | 65.91984 | 40904 ft | 516 kts | 142° |
| 2026-04-22 02:33 | 13.66384 | 65.96598 | 40901 ft | 515 kts | 142° |
| 2026-04-22 02:34 | 13.60808 | 66.01236 | 40904 ft | 515 kts | 142° |
| 2026-04-22 02:34 | 13.55239 | 66.05865 | 40903 ft | 514 kts | 142° |
| 2026-04-22 02:35 | 13.49667 | 66.10494 | 40906 ft | 514 kts | 142° |
| 2026-04-22 02:35 | 13.44108 | 66.15110 | 40904 ft | 513 kts | 142° |
| 2026-04-22 02:36 | 13.38551 | 66.19720 | 40904 ft | 513 kts | 142° |
| 2026-04-22 02:36 | 13.33024 | 66.24304 | 40900 ft | 513 kts | 142° |
| 2026-04-22 02:37 | 13.27473 | 66.28904 | 40902 ft | 512 kts | 143° |
| 2026-04-22 02:37 | 13.21929 | 66.33496 | 40902 ft | 512 kts | 143° |
| 2026-04-22 02:38 | 13.16390 | 66.38080 | 40904 ft | 511 kts | 143° |
| 2026-04-22 02:38 | 13.10840 | 66.42671 | 40903 ft | 511 kts | 143° |
| 2026-04-22 02:39 | 13.05347 | 66.47212 | 40901 ft | 510 kts | 143° |
| 2026-04-22 02:39 | 12.99814 | 66.51784 | 40899 ft | 510 kts | 143° |
| 2026-04-22 02:40 | 12.94278 | 66.56355 | 40900 ft | 510 kts | 143° |
| 2026-04-22 02:40 | 12.88787 | 66.60887 | 40905 ft | 509 kts | 143° |
| 2026-04-22 02:41 | 12.83276 | 66.65432 | 40899 ft | 508 kts | 143° |
| 2026-04-22 02:41 | 12.77769 | 66.69972 | 40895 ft | 507 kts | 143° |
| 2026-04-22 02:42 | 12.72271 | 66.74502 | 40892 ft | 506 kts | 143° |
| 2026-04-22 02:42 | 12.66785 | 66.79019 | 40897 ft | 506 kts | 143° |
| 2026-04-22 02:43 | 12.61334 | 66.83505 | 40896 ft | 505 kts | 143° |
| 2026-04-22 02:43 | 12.55850 | 66.88015 | 40896 ft | 505 kts | 143° |
| 2026-04-22 02:44 | 12.50369 | 66.92520 | 40904 ft | 505 kts | 143° |
| 2026-04-22 02:44 | 12.44883 | 66.97027 | 40879 ft | 504 kts | 144° |
| 2026-04-22 02:45 | 12.39411 | 67.01520 | 40894 ft | 503 kts | 144° |
| 2026-04-22 02:45 | 12.33985 | 67.05973 | 40895 ft | 502 kts | 144° |
| 2026-04-22 02:46 | 12.28530 | 67.10447 | 40894 ft | 502 kts | 144° |
| 2026-04-22 02:46 | 12.23082 | 67.14912 | 40893 ft | 502 kts | 144° |
| 2026-04-22 02:47 | 12.17626 | 67.19383 | 40910 ft | 501 kts | 144° |
| 2026-04-22 02:47 | 12.12218 | 67.23812 | 40891 ft | 501 kts | 144° |
| 2026-04-22 02:48 | 12.06780 | 67.28263 | 40892 ft | 500 kts | 144° |
| 2026-04-22 02:48 | 12.01349 | 67.32706 | 40892 ft | 499 kts | 144° |
| 2026-04-22 02:49 | 11.95928 | 67.37138 | 40894 ft | 498 kts | 144° |
| 2026-04-22 02:49 | 11.90538 | 67.41540 | 40895 ft | 498 kts | 144° |
| 2026-04-22 02:50 | 11.85126 | 67.45958 | 40896 ft | 498 kts | 144° |
| 2026-04-22 02:50 | 11.79720 | 67.50371 | 40884 ft | 497 kts | 144° |
| 2026-04-22 02:51 | 11.74314 | 67.54782 | 40885 ft | 497 kts | 144° |
| 2026-04-22 02:51 | 11.68953 | 67.59154 | 40891 ft | 495 kts | 145° |
| 2026-04-22 02:52 | 11.63581 | 67.63532 | 40892 ft | 494 kts | 145° |
| 2026-04-22 02:52 | 11.58214 | 67.67905 | 40894 ft | 493 kts | 145° |
| 2026-04-22 02:53 | 11.52860 | 67.72265 | 40887 ft | 492 kts | 145° |
| 2026-04-22 02:53 | 11.47506 | 67.76622 | 40884 ft | 491 kts | 145° |
| 2026-04-22 02:54 | 11.42207 | 67.80932 | 40889 ft | 490 kts | 145° |
| 2026-04-22 02:54 | 11.36880 | 67.85262 | 40891 ft | 490 kts | 145° |
| 2026-04-22 02:55 | 11.31548 | 67.89595 | 40887 ft | 490 kts | 145° |
| 2026-04-22 02:55 | 11.26217 | 67.93925 | 40889 ft | 490 kts | 145° |
| 2026-04-22 02:56 | 11.20884 | 67.98254 | 40890 ft | 490 kts | 145° |
| 2026-04-22 02:56 | 11.15540 | 68.02591 | 40878 ft | 490 kts | 145° |
| 2026-04-22 02:57 | 11.10206 | 68.06917 | 40884 ft | 490 kts | 145° |
| 2026-04-22 02:57 | 11.04865 | 68.11246 | 40890 ft | 490 kts | 145° |
| 2026-04-22 02:58 | 10.99531 | 68.15568 | 40890 ft | 490 kts | 145° |
| 2026-04-22 02:58 | 10.95094 | 68.19162 | 40891 ft | 490 kts | 145° |
| 2026-04-22 02:59 | 10.88884 | 68.24190 | 40882 ft | 489 kts | 146° |
| 2026-04-22 02:59 | 10.84456 | 68.27773 | 40882 ft | 488 kts | 146° |
| 2026-04-22 03:00 | 10.79142 | 68.32071 | 40883 ft | 487 kts | 146° |
| 2026-04-22 03:00 | 10.73835 | 68.36361 | 40886 ft | 486 kts | 146° |
| 2026-04-22 03:01 | 10.68541 | 68.40639 | 40884 ft | 486 kts | 146° |
| 2026-04-22 03:01 | 10.63283 | 68.44885 | 40884 ft | 485 kts | 146° |
| 2026-04-22 03:02 | 10.57991 | 68.49158 | 40884 ft | 485 kts | 146° |
| 2026-04-22 03:02 | 10.52705 | 68.53423 | 40883 ft | 485 kts | 146° |
| 2026-04-22 03:03 | 10.47427 | 68.57680 | 40883 ft | 484 kts | 146° |
| 2026-04-22 03:03 | 10.42187 | 68.61905 | 40885 ft | 483 kts | 146° |
| 2026-04-22 03:04 | 10.36923 | 68.66147 | 40886 ft | 483 kts | 146° |
| 2026-04-22 03:04 | 10.31656 | 68.70390 | 40888 ft | 482 kts | 146° |
| 2026-04-22 03:05 | 10.26395 | 68.74626 | 40887 ft | 482 kts | 146° |
| 2026-04-22 03:05 | 10.21163 | 68.78836 | 40868 ft | 482 kts | 146° |
| 2026-04-22 03:06 | 10.15905 | 68.83066 | 40879 ft | 482 kts | 146° |
| 2026-04-22 03:06 | 10.10648 | 68.87293 | 40891 ft | 482 kts | 146° |
| 2026-04-22 03:07 | 10.05395 | 68.91517 | 40884 ft | 481 kts | 146° |
| 2026-04-22 03:07 | 10.00140 | 68.95738 | 40881 ft | 481 kts | 146° |
| 2026-04-22 03:08 | 9.94932 | 68.99922 | 40889 ft | 480 kts | 146° |
| 2026-04-22 03:08 | 9.89693 | 69.04128 | 40888 ft | 480 kts | 146° |
| 2026-04-22 03:09 | 9.84458 | 69.08329 | 40879 ft | 479 kts | 146° |
| 2026-04-22 03:09 | 9.79238 | 69.12517 | 40887 ft | 478 kts | 146° |
| 2026-04-22 03:10 | 9.74015 | 69.16705 | 40887 ft | 478 kts | 146° |
| 2026-04-22 03:10 | 9.68797 | 69.20883 | 40895 ft | 477 kts | 146° |
| 2026-04-22 03:11 | 9.63581 | 69.25056 | 40881 ft | 477 kts | 146° |
| 2026-04-22 03:11 | 9.58406 | 69.29196 | 40887 ft | 476 kts | 146° |
| 2026-04-22 03:12 | 9.53202 | 69.33358 | 40880 ft | 476 kts | 146° |
| 2026-04-22 03:12 | 9.45398 | 69.39597 | 40888 ft | 476 kts | 146° |
| 2026-04-22 03:13 | 9.40197 | 69.43753 | 40888 ft | 476 kts | 146° |
| 2026-04-22 03:13 | 9.34982 | 69.47918 | 40888 ft | 477 kts | 146° |
| 2026-04-22 03:14 | 9.29809 | 69.52049 | 40888 ft | 477 kts | 146° |
| 2026-04-22 03:14 | 9.24595 | 69.56211 | 40890 ft | 477 kts | 146° |
| 2026-04-22 03:15 | 9.19381 | 69.60371 | 40880 ft | 476 kts | 146° |
| 2026-04-22 03:15 | 9.14180 | 69.64519 | 40888 ft | 476 kts | 146° |
| 2026-04-22 03:16 | 9.08977 | 69.68667 | 40890 ft | 476 kts | 146° |
| 2026-04-22 03:16 | 9.03808 | 69.72786 | 40893 ft | 475 kts | 146° |
| 2026-04-22 03:17 | 8.98614 | 69.76924 | 40887 ft | 475 kts | 146° |
| 2026-04-22 03:17 | 8.93423 | 69.81058 | 40887 ft | 475 kts | 146° |
| 2026-04-22 03:18 | 8.88230 | 69.85191 | 40878 ft | 475 kts | 146° |
| 2026-04-22 03:18 | 8.83044 | 69.89318 | 40892 ft | 474 kts | 146° |
| 2026-04-22 03:19 | 8.77861 | 69.93441 | 40885 ft | 473 kts | 146° |
| 2026-04-22 03:19 | 8.72697 | 69.97547 | 40887 ft | 472 kts | 146° |
| 2026-04-22 03:20 | 8.67537 | 70.01649 | 40887 ft | 471 kts | 146° |
| 2026-04-22 03:20 | 8.62416 | 70.05718 | 40887 ft | 470 kts | 146° |
| 2026-04-22 03:21 | 8.57270 | 70.09805 | 40890 ft | 470 kts | 146° |
| 2026-04-22 03:21 | 8.52123 | 70.13892 | 40888 ft | 469 kts | 146° |
| 2026-04-22 03:22 | 8.46987 | 70.17968 | 40888 ft | 469 kts | 146° |
| 2026-04-22 03:22 | 8.41883 | 70.22018 | 40892 ft | 468 kts | 146° |
| 2026-04-22 03:23 | 8.36757 | 70.26084 | 40889 ft | 468 kts | 146° |
| 2026-04-22 03:23 | 8.31641 | 70.30141 | 40890 ft | 467 kts | 146° |
| 2026-04-22 03:24 | 8.26523 | 70.34197 | 40890 ft | 467 kts | 146° |
| 2026-04-22 03:24 | 8.21415 | 70.38245 | 40886 ft | 467 kts | 146° |
| 2026-04-22 03:25 | 8.16307 | 70.42290 | 40889 ft | 466 kts | 146° |
| 2026-04-22 03:25 | 8.11230 | 70.46310 | 40889 ft | 467 kts | 146° |
| 2026-04-22 03:26 | 8.06122 | 70.50354 | 40893 ft | 467 kts | 146° |
| 2026-04-22 03:26 | 8.01001 | 70.54407 | 40889 ft | 467 kts | 147° |
| 2026-04-22 03:27 | 7.95892 | 70.58449 | 40890 ft | 467 kts | 147° |
| 2026-04-22 03:27 | 7.90773 | 70.62496 | 40896 ft | 467 kts | 147° |
| 2026-04-22 03:28 | 7.85660 | 70.66539 | 40889 ft | 467 kts | 146° |
| 2026-04-22 03:28 | 7.80575 | 70.70558 | 40894 ft | 466 kts | 146° |
| 2026-04-22 03:29 | 7.75456 | 70.74602 | 40892 ft | 466 kts | 146° |
| 2026-04-22 03:29 | 7.70346 | 70.78639 | 40894 ft | 466 kts | 146° |
| 2026-04-22 03:30 | 7.65264 | 70.82651 | 40895 ft | 466 kts | 147° |
| 2026-04-22 03:30 | 7.60159 | 70.86681 | 40896 ft | 466 kts | 147° |
| 2026-04-22 03:31 | 7.55056 | 70.90709 | 40897 ft | 466 kts | 147° |
| 2026-04-22 03:31 | 7.49947 | 70.94739 | 40895 ft | 465 kts | 147° |
| 2026-04-22 03:32 | 7.44841 | 70.98759 | 40896 ft | 465 kts | 147° |
| 2026-04-22 03:32 | 7.39766 | 71.02749 | 40896 ft | 465 kts | 147° |
| 2026-04-22 03:33 | 7.34662 | 71.06763 | 40896 ft | 465 kts | 147° |
| 2026-04-22 03:33 | 7.29560 | 71.10775 | 40896 ft | 465 kts | 147° |
| 2026-04-22 03:34 | 7.24450 | 71.14793 | 40896 ft | 465 kts | 147° |
| 2026-04-22 03:34 | 7.19345 | 71.18805 | 40896 ft | 465 kts | 146° |
| 2026-04-22 03:35 | 7.14240 | 71.22817 | 40899 ft | 465 kts | 147° |
| 2026-04-22 03:35 | 7.09162 | 71.26805 | 40898 ft | 466 kts | 147° |
| 2026-04-22 03:36 | 7.04052 | 71.30819 | 40899 ft | 466 kts | 147° |
| 2026-04-22 03:36 | 6.98933 | 71.34837 | 40900 ft | 466 kts | 147° |
| 2026-04-22 03:37 | 6.93814 | 71.38855 | 40899 ft | 466 kts | 147° |
| 2026-04-22 03:37 | 6.88695 | 71.42872 | 40892 ft | 467 kts | 147° |
| 2026-04-22 03:38 | 6.83569 | 71.46893 | 40892 ft | 467 kts | 146° |
| 2026-04-22 03:38 | 6.78447 | 71.50910 | 40897 ft | 466 kts | 146° |
| 2026-04-22 03:39 | 6.73321 | 71.54928 | 40896 ft | 466 kts | 146° |
| 2026-04-22 03:39 | 6.68231 | 71.58918 | 40896 ft | 467 kts | 146° |
| 2026-04-22 03:40 | 6.63101 | 71.62938 | 40893 ft | 466 kts | 146° |
| 2026-04-22 03:40 | 6.57985 | 71.66946 | 40893 ft | 466 kts | 146° |
| 2026-04-22 03:41 | 6.52861 | 71.70959 | 40896 ft | 466 kts | 146° |
| 2026-04-22 03:41 | 6.47770 | 71.74945 | 40891 ft | 466 kts | 146° |
| 2026-04-22 03:42 | 6.42648 | 71.78956 | 40897 ft | 466 kts | 146° |
| 2026-04-22 03:42 | 6.37518 | 71.82969 | 40895 ft | 465 kts | 147° |
| 2026-04-22 03:43 | 6.32088 | 71.86409 | 40906 ft | 460 kts | 155° |
| 2026-04-22 03:43 | 6.26458 | 71.89382 | 40895 ft | 460 kts | 156° |
| 2026-04-22 03:44 | 6.20808 | 71.92418 | 40897 ft | 460 kts | 155° |
| 2026-04-22 03:44 | 6.15199 | 71.95531 | 40892 ft | 460 kts | 155° |
| 2026-04-22 03:45 | 6.09606 | 71.98665 | 40896 ft | 459 kts | 155° |
| 2026-04-22 03:45 | 6.04018 | 72.01792 | 40895 ft | 459 kts | 155° |
| 2026-04-22 03:46 | 5.98437 | 72.04911 | 40896 ft | 458 kts | 155° |
| 2026-04-22 03:46 | 5.92884 | 72.08013 | 40896 ft | 458 kts | 155° |
| 2026-04-22 03:47 | 5.87308 | 72.11126 | 40895 ft | 458 kts | 155° |
| 2026-04-22 03:47 | 5.81742 | 72.14231 | 40896 ft | 457 kts | 155° |
| 2026-04-22 03:48 | 5.76211 | 72.17313 | 40896 ft | 457 kts | 155° |
| 2026-04-22 03:48 | 5.70653 | 72.20411 | 40895 ft | 457 kts | 155° |
| 2026-04-22 03:49 | 5.65100 | 72.23506 | 40898 ft | 457 kts | 155° |
| 2026-04-22 03:49 | 5.60440 | 72.26103 | 40903 ft | 456 kts | 154° |
| 2026-04-22 03:50 | 5.54911 | 72.29184 | 40896 ft | 456 kts | 154° |
| 2026-04-22 03:50 | 5.49356 | 72.32279 | 40896 ft | 455 kts | 154° |
| 2026-04-22 03:51 | 5.43812 | 72.35367 | 40890 ft | 455 kts | 154° |
| 2026-04-22 03:51 | 5.38316 | 72.38427 | 40895 ft | 454 kts | 154° |
| 2026-04-22 03:52 | 5.35068 | 72.40236 | 40894 ft | 454 kts | 154° |
| 2026-04-22 05:22 | 5.31446 | 72.42253 | 40908 ft | 449 kts | 154° |
| 2026-04-22 05:22 | 5.20579 | 72.48296 | 39943 ft | 446 kts | 154° |
| 2026-04-22 05:22 | 4.99821 | 72.59827 | 37492 ft | 433 kts | 153° |
| 2026-04-22 05:23 | 4.77953 | 72.72019 | 30664 ft | 455 kts | 153° |
| 2026-04-22 05:23 | 4.55807 | 72.84280 | 23911 ft | 445 kts | 152° |
| 2026-04-22 05:23 | 4.34619 | 72.96036 | 18044 ft | 426 kts | 152° |
| 2026-04-22 05:23 | 4.14608 | 73.07158 | 13479 ft | 394 kts | 151° |
| 2026-04-22 05:24 | 3.97191 | 73.16836 | 10222 ft | 339 kts | 147° |
| 2026-04-22 05:24 | 3.92533 | 73.21929 | 8894 ft | 292 kts | 99° |
| 2026-04-22 05:24 | 3.94434 | 73.29215 | 6615 ft | 243 kts | 81° |
| 2026-04-22 05:24 | 3.94896 | 73.41662 | 2933 ft | 198 kts | 89° |
| 2026-04-22 05:25 | 3.94895 | 73.50644 | 1518 ft | 165 kts | 89° |
| 2026-04-22 05:25 | 3.95356 | 73.52529 | 1724 ft | 183 kts | 47° |
| 2026-04-22 05:25 | 3.97765 | 73.53124 | 1748 ft | 183 kts | 1° |
| 2026-04-22 05:25 | 4.00352 | 73.53136 | 2005 ft | 193 kts | 1° |
| 2026-04-22 05:26 | 4.02910 | 73.53137 | 2001 ft | 174 kts | 1° |
| 2026-04-22 05:26 | 4.05338 | 73.53134 | 1998 ft | 175 kts | 1° |
| 2026-04-22 05:26 | 4.07627 | 73.53129 | 1942 ft | 150 kts | 1° |
| 2026-04-22 05:26 | 4.09582 | 73.53126 | 1752 ft | 138 kts | 1° |
| 2026-04-22 05:27 | 4.11484 | 73.53122 | 1366 ft | 134 kts | 1° |
| 2026-04-22 05:27 | 4.13845 | 73.53120 | 958 ft | 134 kts | 1° |
| 2026-04-22 05:27 | 4.15455 | 73.53110 | 659 ft | 135 kts | 0° |
| 2026-04-22 05:27 | 4.16385 | 73.53102 | 466 ft | 133 kts | 0° |
| 2026-04-22 05:28 | 4.17310 | 73.53100 | 294 ft | 132 kts | 0° |
| 2026-04-22 05:28 | 4.18237 | 73.53099 | 120 ft | 134 kts | 1° |
| 2026-04-22 05:28 | 4.19159 | 73.53111 | 19 ft | 124 kts | 0° |
| 2026-04-22 05:28 | 4.19820 | 73.53103 | 17 ft | 51 kts | 359° |
| 2026-04-22 05:29 | 4.19879 | 73.53101 | 17 ft | 7 kts | 356° |
| 2026-04-22 05:29 | 4.19922 | 73.53103 | 17 ft | 11 kts | 2° |
| 2026-04-22 05:29 | 4.19927 | 73.53103 | 17 ft | 0 kts | 1° |
| 2026-04-22 05:30 | 4.19928 | 73.53103 | 17 ft | 0 kts | 1° |
| 2026-04-22 05:30 | 4.19932 | 73.53104 | 17 ft | 1 kts | 1° |
| 2026-04-22 05:30 | 4.19938 | 73.53104 | 17 ft | 1 kts | 1° |
| 2026-04-22 05:31 | 4.19946 | 73.53104 | 17 ft | 1 kts | 1° |
| 2026-04-22 05:31 | 4.19957 | 73.53104 | 17 ft | 2 kts | 1° |